Bharatpur
S.No. Kiosk Code Kiosk Name LSP Address Ph. No. Credit Limit Remaining Limit Active / Deactive Creation Date Deactivation Date Prepaid Limit Virtual Limit
1 741 CSC Bansi Khurd_WRS 2014-Aksh-BHARATPUR Village - Bansi Khurd Block - Bansi Khurd Dist. - Bharatpur  9461490904  99  Active  07-08-2014    583.6  1228.54 
2 742 CSC Seekri Chak No.1_WRS 2014-Aksh-BHARATPUR Village - Seekri Chak No. 1 Block - Nagar Dist. - Bharatpur  9828104120  664  Active  07-08-2014    719.4  2730.00 
3 744 Vinod Kumar Sharma 2014-Aksh-BHARATPUR chudi market town nagar   Dist. - Bharatpur  9694431183  814  Active  07-08-2014    8.44  10169.34 
4 747 CSC Khera_WRS 2014-Aksh-BHARATPUR Village - Khera Block - Nadbai Dist. - Bharatpur  9057975797  85  Active  07-08-2014    83.84  180.58 
5 748 CSC Janoothar_WRS 2014-Aksh-BHARATPUR Village - Janoothar Block - Deeg Dist. Bharatpur  9602813066  1376  Active  07-08-2014    450.56  1990.63 
6 752 Ravindra Kumar Sharma 2014-Aksh-BHARATPUR Near Khadi Vastra Bhandar   8696844133  1278  Active  07-08-2014    143.83  290.30 
7 753 CSC Siras_WRS 2014-Aksh-BHARATPUR Village - Siras Block - Weir Dist. - Bharatpur  7732872541  460  Active  07-08-2014    1095.94  5756.35 
8 754 Kanheya Lal 2014-Aksh-BHARATPUR Roop Ram Ka Kunda Pakka Nala Ke Pass Anah Gate Bharatpur  8696806560  826  Active  07-08-2014    296.78  12.00 
9 788 Ravi Saini 2014-Aksh-BHARATPUR Near Buis Stand Rarah Tehsil Kumher Dist. Bharatpur  9785056392  150  Active  21-08-2014    .45  3482.48 
10 791 Mahendra Kumar 2014-Aksh-BHARATPUR Court Campus Tehsil, Bayana Dist. - Bharatpur  9461100334  352  Active  21-08-2014    12371.51  1364.44 
11 797 Pavnesh Kumar 2014-Aksh-BHARATPUR Near PNB bank Khanua Teh. Rupwas Dist. Bharatpur  9928771440  177  Active  21-08-2014    5093.41  12217.08 
12 807 Dinesh Kumar Sharma 2014-Aksh-BHARATPUR Shyam Nagar  Colony Behind Central School Bharatpur  7790898199  1526  Active  22-08-2014    63.21  401.93 
13 810 Nateen Singh 2014-Aksh-BHARATPUR Main Market Old Post  Office Pahari Tehsil  Disst. - Bharatpur  9783715200  3157  Active  23-08-2014    2.35  9995.01 
14 811 Laxmi Narayan 2014-Aksh-BHARATPUR 760 Kalakar Mohalla Jurahra Tehsil Kaman Disst. - Bharatpur  9982906461  904  Active  23-08-2014    741.09  20678.98 
15 816 Ghanshyam Saini 2014-Aksh-BHARATPUR Main Market Sikri Tehisl - Nagar Disst. - Bharatpur  9785508730  18705  Active  27-08-2014    5.22  64070.14 
16 817 Sher Singh 2014-Aksh-BHARATPUR Hospital Ke Pass Uchchain Road Sear Bharatpur  9828607228  1988  Active  27-08-2014    1908.35  14545.21 
17 818 Rakesh Kumar Sharma 2014-Aksh-BHARATPUR Prince Attachi House Deewan Mohalla  Kaman Bharatpur  9529480001  10000  23  Active  27-08-2014    41.46  3360.28 
18 819 Ashok Kumar 2014-Aksh-BHARATPUR VPO Bidyari  Tehsil 0 Bayana Bharatpur  9351939397  199  Active  27-08-2014    2.71  721.79 
19 855 Kamlesh Prasad Sharma 2014-Aksh-BHARATPUR Reliance Medicals Goal Baug road Bharatpur  8104525131  Active  08-09-2014    13.95  823.15 
20 856 Fatte Krishna Gaur 2014-Aksh-BHARATPUR Bus Stand Jurhere  Tehsil - Kaman Disst. - Bharatpur  9649340809  Active  08-09-2014    .73  4250.81 
21 865 Nakul Raj 2014-Aksh-BHARATPUR Single Window E Sugam Kumher  Dist. Jaipur  9785037811  154  Active  11-09-2014    777.45  15385.48 
22 895 Meena Devi 2014-Aksh-BHARATPUR Near Court  Deeg Bharatpur  9414584015  10000  8680  Active  16-09-2014    .1  17193.19 
23 897 Mayuri emitra 2014-Aksh-BHARATPUR opposite govt.  hospital weir Bharatpur  9928585402  1072  Active  16-09-2014    2080.92  12911.49 
24 898 Mina Devi 2014-Aksh-BHARATPUR BNRGSK Panchayat Samiti DeeG Bharatpur  9829333108  3722  Active  16-09-2014    .63  6479.38 
25 899 Sachin Khandelwal 2014-Aksh-BHARATPUR Near Devi Ram Kachori wala Choburja Market Bharatpur  9461695960  9663  Active  16-09-2014    .53  814.06 
26 901 Santosh Kumar 2014-Aksh-BHARATPUR Surajmal Nagar Near Center School Bharatpur  9887112441  40000  12215  Active  17-09-2014    3736.2  8690.95 
27 919 KRISHNA KANT 2014-Aksh-BHARATPUR Ram Nagar Colony Bhartpur   7792001955  191  Active  19-09-2014    21.08  9995.73 
28 932 Zuber Khan 2014-Aksh-BHARATPUR Cheetha Wali Gali Chaburja Bazar Bharatpur  9462487927  19422  Active  25-09-2014    .78  26771.30 
29 934 Vinita 2014-Aksh-BHARATPUR Khaluja Hospital Ke pass Jawahar Nagar Bharatpur  7597156959  214  Active  25-09-2014    183.98  168.00 
30 953 Raman Lal Sharma 2014-Aksh-BHARATPUR Chowk Mohalla Kaman Bharatpur  9468682445  466  Active  29-09-2014    140.37  21.13 
31 966 Gulap Khandelwal 2014-Aksh-BHARATPUR Peer Mohalla  kaman Bharatpur  05640250100  40000  167  Active  09-10-2014    4000.32  6610.92 
32 982 Manoj sharma 2014-Aksh-BHARATPUR Peer mohalla ward no 17 Kama Kaman Bharatpur  05640-251101  1726  Active  13-10-2014    25.72  488.66 
33 999 SUNIL KUMAR 2014-Aksh-BHARATPUR A32 JAWAHAR NAGAR  BHARATPUR   9414303388  2336  Active  22-10-2014    2283.13  1732.91 
34 1000 ABHAY KUMAR JAIN 2014-Aksh-BHARATPUR INFRONT OF COURT BKAMAN  BHARATPUR   8432667009  264  Active  22-10-2014    3239.76  15323.52 
35 1001 RAJENDRA KUMAR 2014-Aksh-BHARATPUR prajapati mohalla teh nagar  BHARATPUR   9829829721  10153  Active  22-10-2014    303.91  31.94 
36 1002 Vishnu Kumar 2014-Aksh-BHARATPUR Tehsil Campus Bayana  Bharatpur   9672086606  50  Active  27-10-2014    .52  1166.30 
37 1003 Suresh Sharma 2014-Aksh-BHARATPUR Tehsil Parisar  Kaman Bharatpur  9413672361  4327  Active  27-10-2014    15.04  8248.47 
38 1004 RITESH GARG 2014-Aksh-BHARATPUR Teshsil Campus Weir    9509489583  1834  Active  27-10-2014    8.3  3535.28 
39 1005 Surendra Sharma 2014-Aksh-BHARATPUR Tehsil- Bhusawar Bharatpur- 321406   05643271000  725  Active  27-10-2014    5389.11  3056.92 
40 1006 MEENA DEVI 2014-Aksh-BHARATPUR Tehsil Campus Deeg   8058565580  537  Active  27-10-2014    .69  219.04 
41 1008 Deepak Kumar Jain 2014-Aksh-BHARATPUR Tehsil Office Bharatpur    9929929920  27556  Active  27-10-2014    .99  14516.15 
42 1029 Jitendra Kumar 2014-Aksh-BHARATPUR near bank of baroda  bayana Bharatpur  9783283874  41  Active  03-11-2014    .44  2711.96 
43 1030 Amit Sharma 2014-Aksh-BHARATPUR Near Railway Station Bharatpur   9461582799  90000  81663  Active  03-11-2014    8396.21  1575.17 
44 1031 Gaurav Sharma 2014-Aksh-BHARATPUR New Santan Dharam  Market Bharatpur  9414375500  40000  29537  Active  03-11-2014    .26  10003.23 
45 1038 Dharam Chand 2014-Aksh-BHARATPUR OLD PAHADI ROAD BILOD STAND KAMAN BHARATPUR    9950659910  873  Active  06-11-2014    1285.46  4886.97 
46 1039 Aksh OptifLimited 2014-Aksh-BHARATPUR REGIONAL OFFICE 225-SWARNA  JYANTI NAGAR BHARATPUR   7793814043  Active  13-11-2014    1168.46  0.00 
47 1046 Sanjeev Kumar Sharma 2014-Aksh-BHARATPUR MUDGAL DIGITAL STUDIO NEW MANDI BHARATPUR    9166944376  1447  Active  20-11-2014    .25  3517.00 
48 1048 Purshottam 2014-Aksh-BHARATPUR NEAR PANCHAYAT SAMITI ROOPWAS DIST BHARATPUR RAJASTHAN    8058252616  5258  Active  20-11-2014    17333.81  85438.54 
49 1052 Dinesh Kumar Sharma 2014-Aksh-BHARATPUR JAIN MANDIR SE SAMNE PAHADI DIST BHARATPUR    9610107548  700  Active  21-11-2014    37.82  11714.75 
50 1073 Ram Kunwar 2014-Aksh-BHARATPUR MAIN MARKET SATAVADI DIST BHARATPUR RAJASTHAN    9001660241  926  Active  26-11-2014    5175.53  24798.11 
51 1074 Pushapendra Sharma 2014-Aksh-BHARATPUR SARAS CIRCLE BHARATPUR RAJASTHAN    7734855170  44  Active  27-11-2014    20.52  349.00 
52 1075 Mayank Jain 2014-Aksh-BHARATPUR NEAR JAIN MANDIR SEWAR ROAD BHARATPUR RAJASTHAN    8854881734  825  Active  27-11-2014    .55  5632.71 
53 1079 Aksh Optifibre 2014-Aksh-BHARATPUR Room No.55  Dist. collectrate  Bharatpur  9414059654  14380  Active  27-11-2014    .89  8357.32 
54 1081 Dharmveer Singh 2014-Aksh-BHARATPUR In front of Santoshi Temple Surajpole Gate Bharatpur  9529040674  10000  1405  Active  27-11-2014    20.08  23890.99 
55 1082 Aksh Rajeev Gandhi Seva Kendra Bharatpur 2014-Aksh-BHARATPUR Bharat Nirmaan Rajeev Gandhi Seva Kendra Bharatpur   9414059654  20000  10390  Active  27-11-2014    8543.45  14521.90 
56 1092 Jyoti Sharma 2014-Aksh-BHARATPUR TEHSIL NADBAI BHARATPUR    9024903752  293  Active  01-12-2014    2000.79  2102.54 
57 1093 Parwesh Kumar 2014-Aksh-BHARATPUR SHOP NO 1 PNB ATM KE UPAR JAWAHAR NAGAR CIRCLE BHARATPUR RAJASTHAN    8890458315  231  Active  01-12-2014    .68  0.45 
58 1094 Rajeswari Devi 2014-Aksh-BHARATPUR MAIN MARKET UCHCHAIN TEH ROOPWAS DIST BHARATPUR RAJASTHAN    9887433476  351  Active  01-12-2014    417.39  39052.58 
59 1095 Ghanshyam Singhal 2014-Aksh-BHARATPUR BAPU MARKET NAGAT DIST BHARATPUR RAJASTHAN    9983956579  146  Active  01-12-2014    83.94  386.77 
60 1097 Umesh Tiwari 2014-Aksh-BHARATPUR MURWARA ROAD SUBHASH NAGAR BHARATPUR RAJASTHAN    9413300272  860  Active  01-12-2014    440.89  12486.46 
61 1098 Vineet Kumar 2014-Aksh-BHARATPUR BIHARI GALI RUDAWAL DIST BHARATPUR RAJASTHAN    9649013300  2931  Active  02-12-2014    66.4  1452.14 
62 1099 Parul 2014-Aksh-BHARATPUR KARTAR COLONY NEAR NEW TEHSIL KAMAN BHARATPUR RAJASTHAN    7597755001  250  Active  02-12-2014    544.29  1484.85 
63 1105 Aksh Optifibre Limited 2014-Aksh-BHARATPUR BNSK HQ TEHSIL ROOPWAS DISTRICT BHARATPUR     9694420125  571  Active  05-12-2014    4209.13  11768.74 
64 1112 Mohit Kumar Gupta 2014-Aksh-BHARATPUR 122 RAJENDRA NAGAR BHARATPUR RAJASTHAN    9414692950  19002  Active  11-12-2014    .17  3902.86 
65 1113 Durga Prasad 2014-Aksh-BHARATPUR RADHA COLONY, NEAR RADHA BALLABH TEMPLE  KAMAN, BHARATPUR undefined  9829121852  680  Active  11-12-2014    424.02  116.88 
66 1121 Hemant Kumar Garg 2014-Aksh-BHARATPUR SHOP N0 97 NEAR OLD COLLECTARY BHARATPUR    9782505764  2062  Active  17-12-2014    455.64  473.98 
67 1131 Naeem Khan 2014-Aksh-BHARATPUR ANAND NAGAR COLONY BHARATPUR RAJASTHAN    9694946814  2422  Active  19-12-2014    18.4  15334.50 
68 1141 Lekhraj Bhardwaj 2014-Aksh-BHARATPUR Kaliki Bageechi Bharatpur Rajasthan-321001   9875228260  40000  41089  Active  22-12-2014    760.37  802.43 
69 1142 Anil Kumar jindal 2014-Aksh-BHARATPUR In front of Sindhi dharmashala Gate Road  Bharatpur  9694139121  240000  21936  Active  22-12-2014    4195.73  7866.38 
70 1143 Dilip Kumar Pahadia 2014-Aksh-BHARATPUR Old Anaj Mandi Bhusawar Bharatpur  9875057615  90000  17434  Active  22-12-2014    2692.81  484.35 
71 1145 Rama eMitra Centre 2014-Aksh-BHARATPUR Basan Gate Chouraha Bharatpur   9667621874  120000  35307  Active  22-12-2014    31823.15  6314.43 
72 1146 Gurumeet eMitra 2014-Aksh-BHARATPUR Bizli Ghar Collectrate Road  Bharatpur  05644220610  40000  4654  Active  22-12-2014    95.14  5326.56 
73 1147 Aditiya emitra kiosk 2014-Aksh-BHARATPUR Near Devi Temple Ranjeet Nagar Bharatpur  05644236851  40000  5842  Active  22-12-2014    5329.41  8962.66 
74 1148 Jeetendra Emitra Center 2014-Aksh-BHARATPUR Golpura Road, Subhash nagar behind central bus stand Bharatpur  9414893789  90000  20280  Active  22-12-2014    9120.25  9362.23 
75 1150 Lokesh Sharma 2014-Aksh-BHARATPUR Infront of RTO Office Anah Bharatpur  9414453892  90000  7828  Active  22-12-2014    2002.77  682.68 
76 1152 Manish emitra Center 2014-Aksh-BHARATPUR Manish emitra center Mahal khas road kila  Bharatpur  9982920850  50000  47901  Active  22-12-2014    14339.06  2637.87 
77 1153 Manoj Chahar 2014-Aksh-BHARATPUR Infornt of MSJ College 23-Geeta Colony  Bharatpur  9680838811  50000  15465  Active  22-12-2014    1587.9  378.40 
78 1154 Manoj Khandelwal 2014-Aksh-BHARATPUR Near Kiran Niwas home ke  goverdhan gate  Bharatpur  9783001714  40000  1630  Active  22-12-2014    4354.81  8529.17 
79 1155 Manoj emitra Center 2014-Aksh-BHARATPUR Pratap colony Kumer gate Bharatpur  8058079654  510  Active  22-12-2014    18.07  0.00 
80 1156 Mohit Khandelwal 2014-Aksh-BHARATPUR Chhote Ramji ke samne Kumher  Bharatpur  9610967200  5005  Active  22-12-2014    61.41  3144.68 
81 1157 Narendra kumar Jindal 2014-Aksh-BHARATPUR Behind of ganga Mandir Chohara near Budh ki hat Bharatpur  9414344163  140000  3085  Active  22-12-2014    4687.75  653.06 
82 1158 Paritosh 2014-Aksh-BHARATPUR 28, shoping center  Krishna Nagar Bharatpur  9828102544  10000  6854  Active  22-12-2014    647.89  1111.61 
83 1160 Vinay Goyal 2014-Aksh-BHARATPUR Kumher Road Bus Stand ke Samne katra Nadbai Bharatpur  9785615572  90000  1362  Active  22-12-2014    16.25  4769.51 
84 1161 Atul Emitra 2014-Aksh-BHARATPUR Gandhi Chowk  Bayana Bharatpur  9414485885  40000  2013  Active  22-12-2014    .07  1111.16 
85 1162 Banvari Shrama Emitra Bayana 2014-Aksh-BHARATPUR Cachari Road  Bayana Bharatpur  9887241956  158  Active  22-12-2014    226.09  138.70 
86 1163 Bhoodev Goyal Emitra Center Nadbai 2014-Aksh-BHARATPUR Near APS School ware House Road nadbai Bharatpur  9024920267  40000  1305  Active  22-12-2014    1738.38  1731.08 
87 1164 Chandra Shekhar Sharma 2014-Aksh-BHARATPUR Near Panchayat Samiti  Sewar Bharatpur  9782565377  30000  1937  Active  22-12-2014    547.79  31836.38 
88 1165 Mukesh emitra Center 2014-Aksh-BHARATPUR Near Ghanta Ghar Deeg Bharatpur  9414870877  40000  42118  Active  22-12-2014    29.03  12798.68 
89 1167 Nidhi eMitra Center 2014-Aksh-BHARATPUR Krishna Nagar Bharatpur   9829353515  40000  38000  Active  22-12-2014    891.98  431.69 
90 1169 Rohit eMitra Center 2014-Aksh-BHARATPUR Arya Samaj Road Bharatpur   9252066443  40000  5065  Active  22-12-2014    87.79  803.37 
91 1170 Chankee Arora 2014-Aksh-BHARATPUR Ridhi Sidhi complex infront of thana  Nadbai Bharatpur  9166437449  4717  Active  22-12-2014    43.54  1727.32 
92 1172 Deepak Emitra Center 2014-Aksh-BHARATPUR Tehsil parisar ke andar Nagar Bharatpur  9887835434  887  Active  22-12-2014    .28  4461.91 
93 1174 Mahesh Sharma 2014-Aksh-BHARATPUR New Road  Deeg Bharatpur  05641220820  90000  7431  Active  22-12-2014    995.53  2305.24 
94 1177 Yatendra Kumar 2014-Aksh-BHARATPUR Nomish Road Bharatpur   9667179064  60000  60000  Active  22-12-2014    596.68  146.69 
95 1178 Deepak Gupta 2014-Aksh-BHARATPUR Middle School Ki Gali Deeg Bharatpur  9772156699  480  Active  22-12-2014    .72  4777.91 
96 1179 Pramod Singh 2014-Aksh-BHARATPUR Near Saini Mishtan Bhandar Bus stand, Bharatpur   9887764466  90000  373  Active  22-12-2014    62.02  2247.45 
97 1180 Lalit Khatri 2014-Aksh-BHARATPUR Near Shamshan Ghat Subhash Colony Bharatpur  9468650475  7926  Active  22-12-2014    2991.19  4864.23 
98 1181 Pankaj Jain 2014-Aksh-BHARATPUR Jain Computers Katra Nadbai Bharatpur  9828119353  40000  961  Active  22-12-2014    67.61  665.03 
99 1182 Rachna Sharma 2014-Aksh-BHARATPUR Anah Gate Bajariya Bharatpur   9785099684  30000  719  Active  22-12-2014    24.41  6854.73 
100 1183 MOHAN LAL GUPTA 2014-Aksh-BHARATPUR MELA GROUND NAGAR NAGAR, BHARATPUR  9928352201  40000  19875  Active  22-12-2014    15143.4  41.07 
101 1185 Deepak Verma 2014-Aksh-BHARATPUR Near P N B Bank Kumher Bharatpur  9887512513  15000  1492  Active  22-12-2014    469.66  558.07 
102 1186 Madan Mohan 2014-Aksh-BHARATPUR New Bust Stand Weir Bharatpur   9468664073  15000  60  Active  22-12-2014    9400.1  48000.95 
103 1187 Rakesh Sharma 2014-Aksh-BHARATPUR Madarpur Road Infront of Podar Kothi Bharatpur   9887353542  90000  224  Active  22-12-2014    .44  6337.93 
104 1188 Neeraj 2014-Aksh-BHARATPUR Super Market  GPF Office Ke Samne Bharatpur  9680702196  40000  1514  Active  22-12-2014    63.3  14280.36 
105 1189 Deepak Raj 2014-Aksh-BHARATPUR 109 Sewar Bazar Sewar Bharatpur  9928328689  10000  1166  Active  22-12-2014    .21  5652.43 
106 1191 Pooja Khandelwal 2014-Aksh-BHARATPUR B 4 Jawahar Nagar Bharatpur   05644220008  13883  Active  22-12-2014    .49  10522.89 
107 1192 Rupesh Kumar 2014-Aksh-BHARATPUR Ram Singh Ka Nagla Bajariya Bharatpur  9785362498  5000  3280  Active  22-12-2014    2.12  5158.01 
108 1194 Manoj Kumar 2014-Aksh-BHARATPUR Saharai Road Deeg Bharatpur  9983406728  3091  Active  22-12-2014    520.97  11568.34 
109 1195 Ravi Shankar Sharma 2014-Aksh-BHARATPUR Goverdhan Road Deeg Bharatpur  8058568722  10000  292  Active  22-12-2014    .68  2859.53 
110 1196 Veerendra Singh 2014-Aksh-BHARATPUR Near S.P. Office Bharatpur   9887002112  4213  Active  22-12-2014    5.58  4348.91 
111 1197 Ritvis Cyber World 2014-Aksh-BHARATPUR 475 SPM Nagar Bharatpur   9784648494  607  Active  22-12-2014    .62  2420.19 
112 1199 Sudhir Kumar Sharma 2014-Aksh-BHARATPUR BNRGSK Panchayat Samiti Nadwai  9887982284  202  Active  22-12-2014    1880.05  19964.89 
113 1201 Hitesh Kumar 2014-Aksh-BHARATPUR BNRGSK Panchayat Samiti Kaman  9680824103  15000  404  Active  22-12-2014    850.75  46626.02 
114 1202 Honey Saraswat 2014-Aksh-BHARATPUR BNRGSK Panchayat Smiti Bayana  9414942200  222  Active  22-12-2014    779.5  6165.74 
115 1203 Manvendra 2014-Aksh-BHARATPUR 36, Shopping Center Krishna Nagar Bharatpur   9799348952  494  Active  22-12-2014    3923.85  15709.85 
116 1204 Pankaj Yadav 2014-Aksh-BHARATPUR Near Suraj Pole Gate Gopal Garh Bharatpur   9782597856  3808  Active  22-12-2014    63.28  5532.56 
117 1207 Rajendra Goyal 2014-Aksh-BHARATPUR Near Power House Bharatpur   9530445152  1200  Active  22-12-2014    .14  29096.16 
118 1208 Pradeep Kaushik 2014-Aksh-BHARATPUR Nabab Gali Mathura Gate Bharatpur   9413304237  1889  Active  22-12-2014    86.23  15.68 
119 1210 Dinesh Kumar Goyal 2014-Aksh-BHARATPUR Sadar Bazar Kaman  Bharatpur   9351721784  200  Active  22-12-2014    104.29  1999.03 
120 1211 Ravi Prakash 2014-Aksh-BHARATPUR Old Sabji Mandi Near Main Post Office Bayana Bharatpur  9460174979  224  Active  22-12-2014    715.3  2898.59 
121 1212 Sushil Shukla 2014-Aksh-BHARATPUR A-12 Ranjeet Nagar Bharatpur   9460012395  2572  Active  22-12-2014    4236.04  470.33 
122 1213 Hirendra Kumar 2014-Aksh-BHARATPUR Near S.B.I. Bank  Kumhar Gate  Bharatpur  9667153781  Active  22-12-2014    .13  23721.96 
123 1215 Praveen Kumar 2014-Aksh-BHARATPUR Infornt of Police Station  Nadbai Bharatpur  9461694089  1455  Active  22-12-2014    74.51  3255.43 
124 1216 Devendra Pal 2014-Aksh-BHARATPUR Kasgang Road Nadabi Bharatpur   9785467573  645  Active  22-12-2014    218.33  1767.17 
125 1217 Arun Kumar Saxena 2014-Aksh-BHARATPUR Near Mahaveer Public School Rundhiya Nagar Bharatpur  9468885839  1050  Active  22-12-2014    76.26  9068.14 
126 1230 Aslam 2014-Aksh-BHARATPUR BNRGSK Panchayat Samiti Nagar  9982090666  530  Active  25-12-2014    .34  31575.34 
127 1255 Ganesh Dutt Mishra 2014-Aksh-BHARATPUR GOPALGHAR BHARATPUR    9680714485  7760  Active  09-01-2015    1838.11  4731.84 
128 1258 Ram Mohan 2014-Aksh-BHARATPUR ANHA  GATE BAJARIYA BHARATPUR    8387978336  1296  Active  09-01-2015    .02  8548.21 
129 1259 Daniel 2014-Aksh-BHARATPUR OUTSIDE  SURAJ POLE GATE BHARATPUR   9783863436  1158  Active  09-01-2015    672.82  865.11 
130 1260 Pankaj Kumar Koli 2014-Aksh-BHARATPUR RAJEEV GNADHI SEVA KENDRA  AKHAIGAR NADBAI BHARATPUR   9785196307  3293  Active  09-01-2015    170.18  7504.00 
131 1265 Satyendra Singh 2014-Aksh-BHARATPUR VEAR HOUSE ROAD NEAR POST  OFFICE, NADABI BHARATPUR   9875200277  145  Active  10-01-2015    663.46  753.45 
132 1266 Rajkumari Rajora 2014-Aksh-BHARATPUR COMPUTECH COMPUTER CENTER  NEAR KHADHI A SHARAM WEIR DIST BHARATPUR  9460595442  2918  Active  10-01-2015    37.85  310.27 
133 1267 Pavan Kumar 2014-Aksh-BHARATPUR ANHA GATE BAJARIYA BHARATPUR    9414000016  20995  Active  10-01-2015    6329.63  5469.63 
134 1271 Azad Khan 2014-Aksh-BHARATPUR TESHIL CAMPUS NAGAR BHARATPUR    9887712794  6008  Active  16-01-2015    .38  17789.73 
135 1281 JIYA RAHMAN 2014-Aksh-BHARATPUR Jiya rahaman emitra center babu bazar Bhartpur   9829753722  4178  Active  20-01-2015    387.16  9169.44 
136 1282 Ashok Kumar Sharma 2014-Aksh-BHARATPUR MAIN MARKET NEAR POLICE CHOKI DEEG BHARATPUR    9351329943  1082  Active  20-01-2015    101.22  6031.89 
137 1307 Bhupendra Agrawal 2014-Aksh-BHARATPUR AGRAWAL COMPUTER POINT, NEAR AGRAWAL DHARMSHALA   KAMAN BHARATPUR RAJASTHAN   7877030711  46  Active  28-01-2015    1000.26  2438.19 
138 1310 Naresh Chand Agarwal 2014-Aksh-BHARATPUR MORI CHAR BAGH OPP. EYE HOSPITAL BHARATPUR RAJASTHAN    9414307673  402  Active  28-01-2015    .41  645.00 
139 1311 Radha Kumari 2014-Aksh-BHARATPUR VILLAGE BANSI PHADPUR TEHSIL RUPBAS BHARATPUR RAJASTHAN    9875003256  16  Active  28-01-2015    127.99  3.29 
140 1316 Dinesh Chand 2014-Aksh-BHARATPUR ATAL SEWA KENDRA JAGHINA SEWAR BHARATPUR RAJASTHAN    9784114403  79  Active  29-01-2015    .03  12042.70 
141 1317 Bholu Ram Sharma 2014-Aksh-BHARATPUR ATAL SEWA KENDRA AKTA BHARATPUR RAJASTHAN    8058200671  1103  Active  29-01-2015    .24  12013.14 
142 1331 Lalit Mohan 2014-Aksh-BHARATPUR NEAR PNB BANK OLD BYEPASS ROAD NAGAR BHARATPUR RAJASTHAN    9024528958  190  Active  03-02-2015    1146.98  457.56 
143 1332 Praveen Kumar 2014-Aksh-BHARATPUR ATAL SAMPARK KENDRA USRANI KUMHER BHARATPUR RAJASTHAN    9785506082  49  Active  03-02-2015    11.45  11589.92 
144 1339 Bijendra Singh Gurjar 2014-Aksh-BHARATPUR GANDHI CHAUK BAYANA  BHARATPUR RAJASTHAN   9351950965  4310  Active  04-02-2015    1442.8  8222.48 
145 1340 Sanjay Kumar 2014-Aksh-BHARATPUR LAXMAN MANDIR BHARATPUR RAJASTHAN    9414200200  242  Active  04-02-2015    625.71  1570.61 
146 1341 Sanjay Kumar Saini 2014-Aksh-BHARATPUR OUT SIDE SOORAJPOL GATE BHARATPUR RAJASTHAN    9529192492  Active  04-02-2015    2255.71  7019.18 
147 1378 Veerendra Kumar 2014-Aksh-BHARATPUR VPO KALSARA TEH BAYANA BHARATPUR RAJASTHAN    9783335317  1566  Active  09-02-2015    3082.19  13136.67 
148 1389 Rajesh Kumar 2014-Aksh-BHARATPUR KUMHER ROAD NADBAI BHARATPUR RAJASTHAN    9782848895  3074  Active  18-02-2015    200.02  24843.95 
149 1390 Shyam Sundar Gupta 2014-Aksh-BHARATPUR ATAL SEWA KENDRA JANOOTHAR DEEG BHARATPUR RAJASTHAN    05641220090  343  Active  18-02-2015    .2  1156.74 
150 1391 Varish 2014-Aksh-BHARATPUR RAJEEV GANDHI KENDRA  GULPARA NAGAR BHARATPUR RAJASTHAN   9772379508  693  Active  18-02-2015    176.51  20879.26 
151 1392 Mausam Khan 2014-Aksh-BHARATPUR RAJEEV GANDHI Kendra Samler Pahari Nagar Bharatpur Rajasthan    8094101616  830  Active  18-02-2015    681.66  4573.20 
152 1393 Prateek Singhal 2014-Aksh-BHARATPUR STATE BANK KI GALI  DEEVAN MOHALLA KAMANSTATE BANK KI GALI DEEVAN MOHALLA KAMAN BHARATPUR RAJAS   9529208400  230  Active  18-02-2015    5.85  1141.50 
153 1394 Krishan Murari 2014-Aksh-BHARATPUR MADHUR COMPUTERS ANAH GATE BHARATPUR RAJASTHAN    9414376540  291  Active  18-02-2015    .53  3643.30 
154 1395 Shyam Sundar 2014-Aksh-BHARATPUR KISHORI PAYASA MOHALLA KAMAN BHARATPUR RAJASTHAN    9785908837  7670  Active  18-02-2015    2613.07  6305.22 
155 1425 Umesh Chand 2014-Aksh-BHARATPUR ATAL SEWA KENDRA MATUKI TEH. KAMAN DIST BHARATPUR RAJASTHAN    9929299900  663  Active  27-02-2015    .75  3802.46 
156 1428 Anil Kumar Sharma 2014-Aksh-BHARATPUR KAMLA ROAD BASAN GATE BHARATPURRAJASTHAN    9782505905  2378  Active  02-03-2015    1871.13  18509.81 
157 1429 Jagdish Prasad Sharma 2014-Aksh-BHARATPUR NEAR GIRLSSCHOOL PAHARI ROAD KAMAN BHARATPUR RAJASTHAN    05640251351  1513  Active  02-03-2015    .5  163.02 
158 1431 Bharat Singh 2014-Aksh-BHARATPUR ATAL SEWA KENDRA SIRAS TEH. WEIR DIST BHARATPUR RAJASTHAN    9660347923  86  Active  02-03-2015    4168.68  20267.54 
159 1432 Anuj Agarwal 2014-Aksh-BHARATPUR INFRONT OF GOAL GATE ARYA SAMAJ BHARATPUR    9928941555  1245  Active  02-03-2015    2737.54  2900.34 
160 1433 Daulat Singh 2014-Aksh-BHARATPUR BRIJ NAGAR BHARATPUR RAJASTHAN    9667844838  9669  Active  02-03-2015    47.9  7558.69 
161 1442 Shakir 2014-Aksh-BHARATPUR RAJEEV GANDHI KENDRA KAKRALA NAGAR BHARATPUR RAJASTHAN    9828197456  262  Active  03-03-2015    95.12  401.00 
162 1443 Dharmendra Singh 2014-Aksh-BHARATPUR ATAL SEWA KENDRA DAURDA TEHSIL ROOPWAS Bharatpur    9587363073  15  Active  03-03-2015    1913.88  13178.51 
163 1444 Brij Mohan 2014-Aksh-BHARATPUR ATAL SAMPARK KENDRA KHOH DEEG Bharatpur    9887685567  982  Active  03-03-2015    7865.99  23873.19 
164 1451 Aksh Optifibre Limited 2014-Aksh-BHARATPUR BAYANA, PHARASO District- BHARATPUR (Rajasthan    9414377104  5049  Active  11-03-2015    3957.08  23388.88 
165 1452 Omprakash 2014-Aksh-BHARATPUR BANSI KALAN BUS STAND Teh Sewar Dist Bharatpur Rajasthan    9887493560  324  Active  11-03-2015    16.29  4789.07 
166 1453 Hitesh Kumar 2014-Aksh-BHARATPUR SINGLE WINDOW E SUGAM TEHSIL PAHARI DISST BHARATPUR    9251002005  238  Active  12-03-2015    501.85  10241.71 
167 1455 Yahaya 2014-Aksh-BHARATPUR ATAL SEWA KENDRA NOGAWAN BAMNI TEH KAMAN BHARATPUR RAJASTHAN    9828412828  122  Active  13-03-2015    223.13  6206.02 
168 1459 Kuldeep Singh 2014-Aksh-BHARATPUR ATAL SEWA KENDRA GANGROLI TEH. WEIR DIST BHARATPUR    9667234914  227  Active  16-03-2015    5061.44  13983.23 
169 1464 Rekha 2014-Aksh-BHARATPUR Atal Sewa Kendra,Gangroly Weir   8696805758  163  Active  19-03-2015    202.03  608.96 
170 1465 Jagdish Singh 2014-Aksh-BHARATPUR ATAL SEWA KENDRA CHICHANA    9887949097  2077  Active  19-03-2015    1723.43  12000.63 
171 1466 Nyaj Mohammad 2014-Aksh-BHARATPUR Nagar,Fatehpur Kala Fatehpur Kala   9549890604  1518  Active  19-03-2015    28.96  29736.11 
172 1467 Deepak Singh 2014-Aksh-BHARATPUR ATAL SEWA KENDRA JALALAPUR TEH. NAGAR BHARATPUR    9928319699  311  Active  19-03-2015    1444.03  11933.77 
173 1468 Babu Lal 2014-Aksh-BHARATPUR Atal Sewa Kendra,Sihawali Nagar   8239112676  818  Active  19-03-2015    5016.04  23536.71 
174 1469 Naresh Kumar Dhadoriya 2014-Aksh-BHARATPUR ATAL SEWA KENDRA ANDHIYARI TEH. RUPBAS Bharatpur    8058984002  133  Active  19-03-2015    699.49  4430.06 
175 1470 Neeraj 2014-Aksh-BHARATPUR ATAL SEWA KENDRA SONGAWN TEH.DEEG    8094895737  1900  Active  19-03-2015    1218.64  5776.98 
176 1472 Aksh Optifibre Limited 2014-Aksh-BHARATPUR A.En Office,Old Power House Bharatpur   9887877254  100000  99237  Active  20-03-2015    6521.99  11517.40 
177 1477 Ramvir Singh 2014-Aksh-BHARATPUR ATAL SEWA KENDRA KHEDA BRAHAMAN TEH. DEEG BHARATPUR RAJASTHAN    7733916667  3310  Active  23-03-2015    .67  1071.81 
178 1478 Lakhan Singh 2014-Aksh-BHARATPUR ATAL SEWA KENDRA BADANGARH TEH. DEEG BHARATPUR    9982665647  370  Active  23-03-2015    4664  15054.98 
179 1479 Dileep Kumar Sharma 2014-Aksh-BHARATPUR ATAL SEWA KENDRA NAROLI     7568593912  10  Active  23-03-2015    457.97  4305.04 
180 1505 Pushapendra Kumar Sharma 2014-Aksh-BHARATPUR ATAL SEWA KENDRA PICHUNA     05645276411  452  Active  25-03-2015    5449.06  11812.71 
181 1506 Brijmohan Singh Maggo 2014-Aksh-BHARATPUR ANAH GATE BAJARIYA BHARATPUR Rajasthan    7615801777  1757  Active  25-03-2015    .67  10598.22 
182 1507 Gurmeet Singh 2014-Aksh-BHARATPUR WARD N0 24 GOLBAG ROAD MATHURA GATE BHARATPUR    9587000115  936  Active  25-03-2015    3670.99  5564.71 
183 1508 Ajeet Singh 2014-Aksh-BHARATPUR ATAL SEWA KENDRA PATHENA THE. WEIR BHARATPUR RAJASTHAN    9887515038  2255  Active  25-03-2015    8.55  8367.38 
184 1509 Vishnu Kumar Gupta 2014-Aksh-BHARATPUR ATAL SEVA KENDRA RARAH    9950780243  235  Active  25-03-2015    3377.4  4124.81 
185 1510 Radhe Shyam Rajpoot 2014-Aksh-BHARATPUR ATAL SEWA KENDRA GOGERA TEH .BHUSAWAR    9413837008  845  Active  25-03-2015    241.06  6660.23 
186 1795 Hari Mohan 2014-Aksh-BHARATPUR ATAL SEWA KENDRA UBAR TEH KUMHER BHARATPUR    7023396261  458  Active  06-04-2015    20.09  1770.30 
187 1798 Lokesh Kumar 2014-Aksh-BHARATPUR ATAL SEWA KENDRA KHESTI    9024062105  700  Active  06-04-2015    919.31  20516.31 
188 1799 Harnam Singh 2014-Aksh-BHARATPUR ATAL SEWA KENDRA SADHPURI TEH. NAGAR    8502807926  930  Active  06-04-2015    379.84  7457.23 
189 1802 Deshraj Singh 2014-Aksh-BHARATPUR VILLAGE POST PATHENA TEH. WEIR Bharatpur    9587740216  181  Active  07-04-2015    8.68  548.04 
190 1819 Harmeet Singh 2014-Aksh-BHARATPUR ATAL SEWA KENDRA BASBURJA TEH. NAGAR Bharatpur    8426020062  1190  Active  11-04-2015    3912.3  21093.94 
191 1822 Yashwant Singh 2014-Aksh-BHARATPUR VILLAGE POST PATHENA BABEKHAR TEH.BHUSAWAR BHARATPUR    9785205387  1317  Active  11-04-2015    1460.27  17475.90 
192 1823 Gaurav Agrawal 2014-Aksh-BHARATPUR 29 STC HOUSING BOARD COLONEY BHARATPUR    9680399300  173  Active  11-04-2015    6.7  1093.93 
193 1824 Veerendra Singh 2014-Aksh-BHARATPUR POST GOPALGARH THESIL PAHARI Bharatpur    9461623407  935  Active  11-04-2015    346.46  7374.16 
194 1825 Bhavnesh Kumar 2014-Aksh-BHARATPUR ATAL SEWA KENDRA JAHANGEERPUR TEH.NADBAI Bharatpur Rajasthan    8426924549  Active  11-04-2015    8.89  3250.16 
195 1826 Tufail Khan 2014-Aksh-BHARATPUR ATAL SEWAKENDRA GHOSINGA TEH. PAHARI    8058533192  525  Active  11-04-2015    7019.05  11089.93 
196 1827 Samay Singh 2014-Aksh-BHARATPUR ATAL SEWA KENDRA DHADHAIN TEH BAYANA    9950486489  66  Active  11-04-2015    1093.57  3030.09 
197 1829 Chandra Sekhar Sharma 2014-Aksh-BHARATPUR ATAL SEWA KENDRA SHEESHWADA TEH. DEEG    9672327226  4601  Active  11-04-2015    .84  8133.28 
198 1830 Yashpal Singh 2014-Aksh-BHARATPUR ATAL SEWA KENDRA SALEMPUR KALAN TEH.BHUSAWAR    7891508503  442  Active  11-04-2015    8755.95  35001.59 
199 1878 Ranveer Singh 2014-Aksh-BHARATPUR ATAL SEWA KENDRA KHERLI GADASIYA TEH. BAYANA BHARATPUTR RAJASTHAN    9785380337  18  Active  15-04-2015    6558.74  10299.61 
200 1879 Harish Chand 2014-Aksh-BHARATPUR SURAJ BAGH COLONY KAMAN BHARATPUR    9460963151  606  Active  15-04-2015    .33  8977.46 
201 1924 Pavan Kumar 2014-Aksh-BHARATPUR ATAL SEWA KENDRA MAHMADPURA THE. BAYANA Bharatpur Rajasthan    9785300376  2625  Active  17-04-2015    637.42  17946.16 
202 1925 Surendra Singh 2014-Aksh-BHARATPUR ATAL SEWA KENDRA BHARAMDA THE. NADBAI Bharatpur Rajasthan    9680480465  54  Active  17-04-2015    2.24  2353.94 
203 1936 Nadeem 2014-Aksh-BHARATPUR ANAJ MANDI KE SAMNE  KOSI ROAD KAMAN Bharatpur   9001409058  1148  Active  17-04-2015    4212.74  25593.18 
204 1938 Santosh Kumar 2014-Aksh-BHARATPUR NERA DURGA TEMPLE RANJEET  NAGAR BHARATPUR   9887039878  27  Active  17-04-2015    1908.04  5823.37 
205 1940 Mukesh Saini 2014-Aksh-BHARATPUR NAGAR ROAD, DEEG Bharatpur Rajasthan    9636585941  739  Active  17-04-2015    575.92  5373.02 
206 1944 Raghvendra Sharma 2014-Aksh-BHARATPUR RADHA KRISHNA MANDIR WALI GALI B- NARAYAN GATE BHARATPUR     9828856009  3615  Active  18-04-2015    47.64  3433.25 
207 1945 Mukesh Chand 2014-Aksh-BHARATPUR IN FRONT OF NAGAR PALIKA NADBAI BHARATPUR RAJASTHAN     9887963208  2648  Active  18-04-2015    .82  1623.90 
208 1946 Lakhan Singh 2014-Aksh-BHARATPUR PADAM VIHAR COLONY SEWAR ROAD BHARATPUR    9468681247  59  Active  18-04-2015    54.89  26.00 
209 1949 Raju Singh 2014-Aksh-BHARATPUR 52, JATAV MOHALLA SADPURI THE. NAGAR Bharatpur Rajasthan    8094133729  1271  Active  18-04-2015    423.23  15134.11 
210 1950 Mukesh Chand Sharma 2014-Aksh-BHARATPUR RADHA SWAMI SCHOOL KE SAMNE KHERLI  ROAD NAGAR BHARATPUR   9460646954  86  Active  18-04-2015    2241.41  12987.14 
211 1951 Pushpendra Kumar 2014-Aksh-BHARATPUR ATAL SEWA KENDRA FARSO THE. BAYANA BHARATPUR RAJASTHAN    9887740044  2571  Active  18-04-2015    11.8  3173.56 
212 1964 Vinod Kumar Sharma 2014-Aksh-BHARATPUR MAIN MARKET SEWAR BHARATPUR    9649644179  1196  Active  22-04-2015    .81  2606.21 
213 2014 Mousam 2014-Aksh-BHARATPUR NEAR GOVT. HOSPITAL PAHARI Bharatpur Rajasthan    9887812410  359  Active  29-04-2015    90.39  4830.16 
214 2015 Suveer Chhonkar 2014-Aksh-BHARATPUR NEW CIVIL LINES WARD N0. 39 BHARATPUR    9782561965  819  Active  29-04-2015    .8  264.67 
215 2017 Jal Singh 2014-Aksh-BHARATPUR KHERLI GADASIYA TEH. BAYANA Bharatpur    9784913377  3970  Active  29-04-2015    6657.9  24872.49 
216 2018 Dalveer Singh 2014-Aksh-BHARATPUR DHERA, BORAI  Bharatpur   9667518871  1308  Active  29-04-2015    641.72  2168.13 
217 2031 Yashpal Singh 2014-Aksh-BHARATPUR ATAL SEWA KENDRA ,BACHHRAIN TEH. WEIR BHARATPUR.    9680771458  1259  Active  30-04-2015    1811.37  16887.45 
218 2035 Vikram Singh 2014-Aksh-BHARATPUR ATAL SEWA KENDRA BARAI THE.DEEG, Bharatpur    9680467064  1884  Active  30-04-2015    164.83  10795.05 
219 2036 Narayan Singh 2014-Aksh-BHARATPUR ATAL SEWA KENDRA RASIYA THE. NAGAR, Bharatpur    9785386110  390  Active  30-04-2015    290.92  1564.00 
220 2038 Ijhar 2014-Aksh-BHARATPUR ATAL SEWA KENDRA DHOULET THE. PAHARI Bharatpur    8058657171  40  Active  30-04-2015    175.27  167.44 
221 2040 Ved Prakash 2014-Aksh-BHARATPUR ATAL SEWA KENDRA TERHIYA THE.RUPWAS BHARATPUR    9667866078  16  Active  30-04-2015    3609.05  18094.97 
222 2041 Ramveer Singh 2014-Aksh-BHARATPUR ATAL SEWA KENDRA BARSO BHARATPUR    9887493642  3535  Active  30-04-2015    2.74  4779.06 
223 2043 Pushpendra Kumar 2014-Aksh-BHARATPUR PUSHPENDRA EMITRA CENTRE GOPALGARH BHARATPUR RAJASTHAN    9413303160  117  Active  30-04-2015    9.88  11172.17 
224 2044 Nitin Kumar Sachdeva 2014-Aksh-BHARATPUR BABA PHOTOSTATE JUREHRA THE. KAMAN Bharatpur    9667069627  82  Active  30-04-2015    72.16  1880.18 
225 2046 Rinku Kumar Rawat 2014-Aksh-BHARATPUR MOROLI DAHAR TEH. RUPWAS, Bharatpur    9927130712  99  Active  30-04-2015    .07  10526.78 
226 2048 Ashok Kumar 2014-Aksh-BHARATPUR 135, RUNDHIYA NAGAR NEAR GIRRAJ KENAL BHARATPUR Rajasthan    9828370901  1046  Active  01-05-2015    2033.98  4398.74 
227 2049 Vijay Pal 2014-Aksh-BHARATPUR MAIN MARKET NAGAR Bharatpur Rajasthan    9929767925  Active  01-05-2015    31.5  0.00 
228 2059 Hemant Kumar Sharma 2014-Aksh-BHARATPUR PURABAI KHERA TEH. BAYANA DIST BHARATPUR    9772739816  1696  Active  04-05-2015    699.73  4217.00 
229 2070 Rajpal Yadav 2014-Aksh-BHARATPUR KALYAN MOHALLA KAMAN BHARATPUR RAJASTHAN    8058657957  956  Active  05-05-2015    295.05  1984.23 
230 2071 Khem Singh 2014-Aksh-BHARATPUR ATAL SEWA KENDRA SALABAD THE. BAYANA    9887368362  23  Active  05-05-2015    .86  20369.60 
231 2072 Subham Khandelwal 2014-Aksh-BHARATPUR PAWAN KUNJ COLONY WARD N024 KAMAN Bharatpur Rajasthan    8387872670  3178  Active  05-05-2015    .01  1013.30 
232 2073 Pankaj Kumar 2014-Aksh-BHARATPUR GOPALGARH PAHARI BHARATPUR RAJASTHAN    9828551252  1790  Active  05-05-2015    1.81  7876.29 
233 2095 Dhramvir Singh 2014-Aksh-BHARATPUR ATAL SEWA KENDRA FULWARA THE. BHARATPUR Dist Bharatpur Rajasthan    8094802622  19  Active  06-05-2015    2.48  35.28 
234 2096 Arun Singh 2014-Aksh-BHARATPUR ATAL SEWA KENRDAR NEWARA THE. WEIR BHARATPUR RAJASTHAN    9001686769  509  Active  06-05-2015    1708.66  7165.07 
235 2098 Shree Ram 2014-Aksh-BHARATPUR ATAL SEWA KENDRA SABORA THE. KUMHER Bharatpur Rajasthan    9929169030  2267  Active  06-05-2015    3460.37  1726.39 
236 2099 Radharaman Sharma 2014-Aksh-BHARATPUR ATAL SEWA KENDRA PARAUA THE.RUPWAS Bharatpur Rajasthan    9887196436  819  Active  06-05-2015    1276.55  28156.59 
237 2100 Gopal Prasad 2014-Aksh-BHARATPUR ATAL SEWA KENDRA GOVINDPURA WEIR BHARATPUR RAJASTHAN    8696367636  680  Active  06-05-2015    954.71  2024.63 
238 2132 Bhupendra Singh 2014-Aksh-BHARATPUR DEEP COMPUTER CENTRE PAHUA THE. KUMHER, Bharatpur    9828815751  50  Active  14-05-2015    1804.65  4858.43 
239 2133 Pankaj Agarwal 2014-Aksh-BHARATPUR PURANI ANAJ MANDI WEIR Bharatpur Rajasthan    9461966250  Active  14-05-2015    .52  1113.80 
240 2135 Anil Kumar 2014-Aksh-BHARATPUR ATAL SEWA KENDRA BIDIYARI TEH. BAYANA BHARATPUR RAJASTHAN    9414226716  32  Active  14-05-2015    .36  3466.84 
241 2144 Roopkishor Yadav 2014-Aksh-BHARATPUR Atal Seva Kendra Berro Nagar Bharatpur Rajasthan    9799180017  50  Active  20-05-2015    1632.77  30560.17 
242 2145 Surjeet Singh 2014-Aksh-BHARATPUR ATAL SEWA KENDRA SAHSAN THE. PAHARI BHARATPUR RAJASTHAN    8441058009  960  Active  20-05-2015    58.09  1738.25 
243 2146 Fareed Khan 2014-Aksh-BHARATPUR 115 JATAV MOHALLA MUDIYA THE. NAGAR BHARATPUR RAJASTHAN    9587727320  16  Active  20-05-2015    1555  17242.04 
244 2147 Akhlesh Kumar Sharma 2014-Aksh-BHARATPUR ATAL SEWA KENDRA JAGGIVANPUR THE. WEIR BHARATPUR RAJASTHAN    9950251165  540  Active  20-05-2015    180.5  6377.43 
245 2148 Devendra Prasad Sharma 2014-Aksh-BHARATPUR ATAL SEWA KENDRA BHARATPUR Rajasthan    9782248942  55  Active  20-05-2015    499.27  962.56 
246 2149 Vinod Kumar Sain 2014-Aksh-BHARATPUR ATAL SEWA KENDRA MAINAPURA TEH. BHUSAWAR BHARATPUR RAJASTHAN    9549586750  430  Active  20-05-2015    6010.81  35820.01 
247 2160 Jyoti Gupta 2014-Aksh-BHARATPUR CM PRINTERS EMITRA CENTRE BHARATPUR RAJASTHAN    9166834100  5834  Active  26-05-2015    415.62  908.59 
248 2164 Arun Kumar 2014-Aksh-BHARATPUR INFRONT OF PNB BANK DEEG ROAD BHARATPUR Rajasthan    9887887202  738  Active  26-05-2015    82.54  3224.73 
249 2168 Rajkumar 2014-Aksh-BHARATPUR Gram Panchayat LAKHAN THESILKUMHER, Bharatpur    9983684578  747  Active  26-05-2015    630.41  5562.46 
250 2173 Pushpendra Singh 2014-Aksh-BHARATPUR PLOT N0 Q INDRA NAGAR HEERADAS BHARATPUR RAJASTHAN    8561037440  171  Active  27-05-2015    .48  717.23 
251 2174 Amit Chawla 2014-Aksh-BHARATPUR INFRONT OF SDM COURT KAMAN BHARATPUR RAJASTHAN    9610376376  64  Active  27-05-2015    .27  1015.48 
252 2176 Bhupendra Kumar Dixit 2014-Aksh-BHARATPUR GANDHI NAGAR ROAD SEWAR ROAD BHARATPUR RAJASTHAN    9887503135  520  Active  27-05-2015    214.48  2262.06 
253 2258 Balram Yadav 2014-Aksh-BHARATPUR CHURI BAZAR TEH. NAGAR BHARATPUR    9352777935  715  Active  10-06-2015    .93  5174.24 
254 2260 Mohan Singh 2014-Aksh-BHARATPUR AMBEDKAR CHAUK KAMAN BHARATPUR RAJASTHAN    8875474596  20  Active  10-06-2015    161.25  292.13 
255 2261 Iliyas Khan 2014-Aksh-BHARATPUR ATAL SEWA KENDRA TODA THESIL DEEG    9772391011  80  Active  10-06-2015    4801.41  17198.56 
256 2262 Jeetendra Kumar Gurjar 2014-Aksh-BHARATPUR ATAL SEWA KENDRA BRAHMABAD THE. BAYANA Bharatpur    9587517354  48  Active  10-06-2015    .54  18654.20 
257 2265 Satyendra Kumar 2014-Aksh-BHARATPUR Vpo Sikri Teh Nagar Bharatpur    9413994113  385  Active  15-06-2015    1536.32  629.81 
258 2290 Samsuddin 2014-Aksh-BHARATPUR Viil- Jhantli Teh. Nagar Dist. Bhartpur Rajasthan    7665913436  27  Active  18-06-2015    255.92  35236.01 
259 2302 Dharm Singh 2014-Aksh-BHARATPUR SUNDRAWALI THESIL NAGAR BHARATPUR RAJASTHAN    9887586072  60  Active  20-06-2015    1009.94  9986.77 
260 2304 Chet Ram 2014-Aksh-BHARATPUR NEAR BUS STAND KHOH TEHSIL DEEG BHARATPUR    9928272289  638  Active  20-06-2015    2327.29  5475.14 
261 2306 Ramavatar 2014-Aksh-BHARATPUR KHORKI ROAD TEHSIL NAGAR BHARATPUR RAJASTHAN    9571765235  41  Active  20-06-2015    3.73  20716.29 
262 2307 Santosh Kumar 2014-Aksh-BHARATPUR MAIN MARKET SEWAR BHARATPUR RAJASTHAN    9887002180  1019  Active  20-06-2015    .95  9786.67 
263 2308 Arun Kumar Jain 2014-Aksh-BHARATPUR BUDH KI HAAT BHARATPUR    9782505757  2739  Active  20-06-2015    187.03  10080.09 
264 2309 Meghraj 2014-Aksh-BHARATPUR NEAR SDM OFFICE BHUS AWAR BHARATPUR RAJASTHAN   8094670022  561  Active  20-06-2015    56.88  10369.11 
265 2312 Navneet Kumar 2014-Aksh-BHARATPUR GLOBAL EMITRA VILL.SAIDPURA TESIL RUPWAS BHARATPUR    9414694403  1727  Active  23-06-2015    538.64  165.86 
266 2314 Sanju Sharma 2014-Aksh-BHARATPUR PAI BAGH, BHARATPUR    9461867091  1072  Active  27-06-2015    .59  20603.48 
267 2326 Ravi Kumar 2014-Aksh-BHARATPUR Kaman Bharatpur Rajasthan    7891212512  681  Active  03-07-2015    56.64  866.03 
268 2327 Babli Arya 2014-Aksh-BHARATPUR SAINI MOHALLA KUMHER GATE BHARATPUR RAJASTHAN    9024747685  2434  Active  03-07-2015    66.4  16758.10 
269 2336 Ajhar Khan 2014-Aksh-BHARATPUR VPO TODA TEH DEEG BHARATPUR RAJASTHAN    9772764160  950  Active  11-07-2015    44.66  0.00 
270 2363 Lokesh Kumar Sharma 2014-Aksh-BHARATPUR NEAR SBI BANK , HINDOUN ROAD   BHUSAWAR , BHARATPUR RAJASTHAN undefined  8058681832  Active  24-07-2015    .42  1432.24 
271 2364 Tarun Dayal Katara 2014-Aksh-BHARATPUR JASWANT NAGAR NEAR JASWANT SCHOOL BHARATPUR RAJASTHAN    9414945210  84  Active  24-07-2015    .16  6760.64 
272 2370 Akeel Ahmed 2014-Aksh-BHARATPUR Tehsil CampusNagar,Bharatpur    9982090666  158  Active  24-07-2015    18.95  17363.78 
273 2374 Vishesh Kumar Sharma 2014-Aksh-BHARATPUR NEAR BHUMIYA BURJ GOPINAAT MAUHLLA KAMAN BHARATPUR RAJASTHAN    7891868653  2987  Active  24-07-2015    .78  1030.15 
274 2375 Narendra 2014-Aksh-BHARATPUR MAIN ROAD UCCHAIN THESIL RUPBAS BHARATPUR RAJASTHAN    8952963617  156  Active  24-07-2015    408.45  1098.76 
275 2376 Harveer Singh 2014-Aksh-BHARATPUR ATAL SEWA KENDRA GAHLAU TEH RUPBAS BHARATPUR RAJASTHAN    7665861616  20  Active  24-07-2015    5.11  1025.75 
276 2378 Aksh Optifibre Limired 2014-Aksh-BHARATPUR VARDHMAN MAHAVEER  OPEN UNIVERSITY BHARATPUR   8947080401  168  Active  27-07-2015    .7  2427.03 
277 2388 Sanjeev Kumar Saini 2014-Aksh-BHARATPUR Nagar Bharatpur Rajasthan    9672792484  795  Active  30-07-2015    1118.12  703.77 
278 2393 Rakesh Kumar Garg 2014-Aksh-BHARATPUR D-26 SHOPING CENTER JAWAHAR NAGAR  BHARATPUR RAJASTHAN  9352777798  1133  Active  04-08-2015    .65  308.26 
279 2397 Mukand Bihari 2014-Aksh-BHARATPUR CITY SCHOOL KE PASS BAPU BAZAR NAGAR BHARATPUR RAJASTHAN    9024564343  3331  Active  05-08-2015    2.69  24897.91 
280 2399 Ramesh Chand Jha 2014-Aksh-BHARATPUR NEEM KA NEECHE GUD KI MANDI KUMHER BHARATPUR RAJASTHAN    9782514178  2255  Active  05-08-2015    490.58  276.93 
281 2430 Pawan Kumar 2014-Aksh-BHARATPUR ATAL SEWA KENDRA KURKA THE. RUPBAS BHARATPUR    9785135761  1811  Active  10-08-2015    .99  946.49 
282 2431 Asad Malik 2014-Aksh-BHARATPUR ATAL SEWA KENDRA KAKRALA THE. NAGAR BHARATPUR    9887669070  40  Active  10-08-2015    621.11  7903.00 
283 2432 Ram Ratan Kaushik 2014-Aksh-BHARATPUR EMPLOYEMENT OFFICE BHARATPUR RAJASTHAN    8560053071  526  Active  10-08-2015    939.03  1670.29 
284 2434 Nitish Kumar 2014-Aksh-BHARATPUR MAIN MARKET JANUTHAR TH. DEEG BHARATPUR RAJASTHAN    9799752268  68  Active  14-08-2015    .75  1229.64 
285 2454 MANOJ KUMAR 2014-Aksh-BHARATPUR Village Uncha Nagla Post Behnera Bharatpur  9001708405  276  Active  25-08-2015    498.71  1248.34 
286 2467 Rakesh Tiwari 2014-Aksh-BHARATPUR SAUNALI EMITRA CENTRE BRAHMAWAD THESIL BAYANA BHARATPUR RAJASTHAN    8003603730  75  Active  27-08-2015    1848.8  944.00 
287 2496 Subhash Singh 2014-Aksh-BHARATPUR ATAL SEWA CENTRE MADARPUR BHARATPUR RAJASTHAN    9001004584  439  Active  01-09-2015    .61  794.94 
288 2500 Praveen Kumar Jangid 2014-Aksh-BHARATPUR MAINAPURA THESIL BHUSAWAR WEIR BHARATPUR RAJASTHAN    8058947094  385  Active  03-09-2015    605.04  3616.63 
289 2501 Bhagawan Swaroop Pandey 2014-Aksh-BHARATPUR ATAL SEWA KENDRA WEIR BHARATPUR RAJASTHAN    8829834999  320  Active  03-09-2015    271.39  88.18 
290 2516 Vijay Singh 2014-Aksh-BHARATPUR VIJAY E-MITRA NEAR MAIN GATE THANA NADBAI BHARATPUR    9782319241  636  Active  11-09-2015    529.18  4951.05 
291 2517 Surendra Singh 2014-Aksh-BHARATPUR SDM COURT KE SAMNE THESIL NAGAR BHARATPUR RAJASTHAN    7665935337  842  Active  11-09-2015    497.75  759.13 
292 2519 Rajesh Singh 2014-Aksh-BHARATPUR RAJESH EMITRA CENTRE BHUSAWAR BHARATPUR RAJASTHAN    9667230074  1797  Active  11-09-2015    945.07  3936.56 
293 2525 Aksh Optifibre Limited 2014-Aksh-BHARATPUR A.EN. OFFICE (O&M), BAYANA BHARATPUR    9414485885  100000  39997  Active  16-09-2015    .74  6925.70 
294 2526 Jagveer Singh 2014-Aksh-BHARATPUR PARUL EMITRACENTRE KATARA NADBAI BHARATPUR RAJASTHAN    8384961669  1863  Active  17-09-2015    .57  3385.01 
295 2528 Bhuvnesh Katara 2014-Aksh-BHARATPUR Vill. Mahalpur Kachhi Thesil Rupbas Bharatpur Rajasthan    8432325507  Active  18-09-2015    1217.25  4293.00 
296 2530 Rohit Barhguzar 2014-Aksh-BHARATPUR ROHIT EMITRA NEAR SBI BANK STATION ROAD BAYANA BHARATPUR    9783878131  2000  Active  28-09-2015    2858.00 
297 2531 Vipin Kumar Jain 2014-Aksh-BHARATPUR SARAFA BAZAR JUREHRA TEH.- KAMA DIST.- BHARATPUR RAJASTHAN    9414716155  2057  Active  29-09-2015    44.97  1079.36 
298 2533 Dharmendra Singh 2014-Aksh-BHARATPUR OPPSITE GREEN GARDEN KRISHNA NAGAR BHARATPUR    7597156563  1881  Active  29-09-2015    34.5  59.93 
299 2534 Piyush Kumar Goyal 2014-Aksh-BHARATPUR MAIN MARKET ROOPWAS BHARATPUR RAJASTHAN    9667765197  859  Active  29-09-2015    .19  4.56 
300 2552 Krishna Kant 2014-Aksh-BHARATPUR KRISHI TAYARS KE PASS DEEG ROAD BHARATPUR    9024281316  5330  Active  01-10-2015    637.49  2168.95 
301 2582 Yogesh Kumar 2014-Aksh-BHARATPUR SABLANA TEHSIL KAMAN BHARATPUR RAJASTHAN    9057464748  1112  Active  14-10-2015    9.81  2718.53 
302 2583 Sushila Agrawal 2014-Aksh-BHARATPUR COURT CAMPAS BHARATPUR RAJASTHAN    9461033105  209  Active  14-10-2015    7.25  198.67 
303 2588 Dal Chand 2014-Aksh-BHARATPUR NEAR PANCHYAT KE PASS SIKRI BHARATPUR RAJASTHAN    9672135624  314  Active  16-10-2015    674.31  8133.78 
304 2589 Bhoori Singh 2014-Aksh-BHARATPUR MUDHERA ROOPWAS BHARATPUR    9610041014  1733  Active  17-10-2015    630.48  2124.76 
305 2601 Kavishwar Kant 2014-Aksh-BHARATPUR DEVRAJ EMITRA COMPUTER CENTRE MATHURA JAIPUR BAIPASS BHARATPUR    8386909066  2977  Active  28-10-2015    8.16  381.15 
306 2602 Mohan Swroop Sharma 2014-Aksh-BHARATPUR INFRONT OF GURUKULSCHOOL NADBAI BHARATPUR    8559856214  Active  28-10-2015    0.00 
307 2603 Deepak Garg 2014-Aksh-BHARATPUR MAIN MARKET ROOPWAS BHARATPUR RAJASTHAN    9549786858  1940  Active  28-10-2015    8.88  7773.65 
308 2604 Dharmendra Singh 2014-Aksh-BHARATPUR YASH COMPUTERS CENTRE DEEG BHARATPUR RAJASTHAN    9636602060  823  Active  28-10-2015    99.56  66.35 
309 2605 Hemant Kumar Jain 2014-Aksh-BHARATPUR NEAR HANUMAN MANDIR GOPALGARH BHARATPUR    9667004985  1747  Active  28-10-2015    29.58  3272.08 
310 2608 Atar Singh 2014-Aksh-BHARATPUR ATAL SEVA KENDRA JAISHRI TEH. NAGAR BHARATPUR    9983740637  Active  30-10-2015    3687.00 
311 2613 Avinesh Garg 2014-Aksh-BHARATPUR B- 93 SUBHASH NAGAR BHARATPUR    9694545963  9841  Active  02-11-2015    842.77  176.00 
312 2638 Lokesh Baswada 2014-Aksh-BHARATPUR MSJ COLLAGE KE SAMNE BHARATPUR    9636841153  2231  Active  07-11-2015    463.47  177.13 
313 2639 Surendra Singh 2014-Aksh-BHARATPUR NEAR BUS STAND KALSARA TEH. BAYANA BHARATPUR    8502881401  -150  Active  07-11-2015    33.75  647.00 
314 2640 Narendra Singh 2014-Aksh-BHARATPUR ATAL SEWA KENDRA BAHRA REKHPURA TEH. RUPWAS BHARATPUR RAJASTHAN    9983720748  Active  10-11-2015    22.5  52.00 
315 2645 Vishnu Kumar Sharma 2014-Aksh-BHARATPUR ATAL SEWA KENDR PALI DANG TH. BAYANA BHARATPUR RAJASTHAN    8239531975  Active  20-11-2015    1165.00 
316 2646 Kuldeep 2014-Aksh-BHARATPUR SURAJ POLE GATE BHARATPUR    7891376501  Active  21-11-2015    363.00 
317 2719 Banai Singh 2014-Aksh-BHARATPUR BANAI EMITRA CENTRE KAMOOKA THE. KAMAN BHARATPUR    8058202881  Active  09-12-2015    0.00 
318 2720 Artee Kumari 2014-Aksh-BHARATPUR GAYATRI PHOTO STATE COLLECTRECT ROAD BHARATPUR    7742507865  8276  Active  09-12-2015    244.06  809.43 
319 2721 Vivek Mangal 2014-Aksh-BHARATPUR NAGAR NIGAM OFFICE BHARATPUR    9509543973  1351  Active  09-12-2015    350.77  68.43 
320 2722 Praveen Kumar 2014-Aksh-BHARATPUR PRAVEEN E-MITRA NEW PUSHPVATIKA COLONY BHARATPUR    9414980248  394  Active  09-12-2015    15.87  763.37 
321 2723 Shahid Khan 2014-Aksh-BHARATPUR NEAR KISAN BHAWAN DEEG ROAD BHARATPUR    9785989270  205  Active  09-12-2015    23.58  50.20 
322 2724 Neeraj Saini 2014-Aksh-BHARATPUR KRISHNA E-MITRA SURAJPOLE GATE BHARATPUR    7733869060  2054  Active  09-12-2015    .12  1796.31 
323 2725 Naveen Kumar Sharma 2014-Aksh-BHARATPUR GEETA DEVI EMITRA SEWA  KENDRA AND ROJGAR PARAMARSH KENDRA DHADREN GPDHADRENTEH-BAYANA DIST-BHARATP   9694430944  Active  09-12-2015    0.00 
324 2726 Uma Shankar Sharma 2014-Aksh-BHARATPUR Near Bus Stand, Heera Das  Bharatpur   8058885779  Active  09-12-2015    0.00 
325 2749 Kamal Dass 2014-Aksh-BHARATPUR INDRA NAGAR NALE KE PASS BHARATPUR    9785180936  Active  19-12-2015    43.14  369.48 
326 2750 Sanjay 2014-Aksh-BHARATPUR NEW SADAK TEHSIL DEEG BHARATPUR RAJASTHAN    8741095697  Active  22-12-2015    0.00 
327 2751 Devki Dixit 2014-Aksh-BHARATPUR KATARA MARKET RUPBAS BHARATPUR    8387943416  1621  Active  22-12-2015    1973.61  0.00 
328 2752 Banay Singh 2014-Aksh-BHARATPUR HARE KRISHNA EMITRA MAHAHADPURA TEHSIL BAYANA Bharatpur    9982322322  300  Active  22-12-2015    662.62  896.42 
329 2753 Peetam Singh Saini 2014-Aksh-BHARATPUR BHARTI EMITRA CENTRE NEAR TEHSIL BHUSAWAR BHARATPUR    8502805851  935  Active  22-12-2015    23.58  205.35 
330 2789 Dilawer Khan 2014-Aksh-BHARATPUR KHERLI GUMANI TEH. KAMAN DIST.- BHARATPUR RAJASTHAN    8502079191  Active  05-01-2016    1669.63  0.00 
331 2809 Pushpendra 2014-Aksh-BHARATPUR BEENA E-MITRA CENTRE ROJVILLA COLONY SARAS CHAURAHA, BHARATPUR    9887959823  Active  06-01-2016    0.00 
332 2810 Hakim Singh 2014-Aksh-BHARATPUR KAILA DEVI E-MITRA CENTRE VILLAGE- LACHCHORLA KALAN, POST - AJNOLI  TEH. - BAYANA, BHARATPUR undefined  9057616307  23  Active  06-01-2016    100.06  323.00 
333 2811 Ravi Katheriya 2014-Aksh-BHARATPUR Saksham E-Mitra Centre, Jaghina Gate  Gopal Garh, Bharatpur undefined  7062452805  2203  Active  06-01-2016    118.51  41.68 
334 2812 Vishnu Sharma 2014-Aksh-BHARATPUR LAVANIYA E-MITRA CENTRE, SEWAR FORT KE SAMENE  SEWARVROAD, BHARATPUR undefined  8947921593  1895  Active  06-01-2016    521.56 
335 2813 Satyapal Singh 2014-Aksh-BHARATPUR GURU-G E-MITRA CENTRE RTO OFFICE KE PASS, BHARTPUR     9610706777  Active  06-01-2016    0.00 
336 2814 Jeetendra Singh 2014-Aksh-BHARATPUR OM - SHAI E-MITRA CENTRE, V- RARAH  TEH. - KUMHER, BHARATPUR undefined  9680990299  2569  Active  06-01-2016    2226.82  192.32 
337 2815 Prasoon Singhal 2014-Aksh-BHARATPUR BAUJI TELECOME & E-MITRA CENTRE SURAJPOLE CHAURAHA GOPAL GARH , BHARATPUR    8559826434  573  Active  06-01-2016    .77  219.47 
338 2862 Asjad Khan 2014-Aksh-BHARATPUR ASJAD EMITRA CENTRE SIKRI VILLAGE BHUHAPUR THE. NAGAR    8239103850  Active  21-01-2016    0.00 
339 2863 Rakesh Kumar 2014-Aksh-BHARATPUR BARAULI CHHAR TEHSIL NADBAI Bharatpur    9887120040  Active  22-01-2016    0.00 
340 2883 Aksh Optifibre Limited 2014-Aksh-BHARATPUR M-18, FLATTED SOFTWARE COMPLEX EPIP RIICO SITAPURA JAIPUR    9414059654  Active  28-01-2016    0.00 
341 2884 Sonu Bansal 2014-Aksh-BHARATPUR SABORA TEHSIL KUMHER Bharatpur Rajasthan     9571390022  Active  30-01-2016    0.00 
342 2885 Neeraj Kumar 2014-Aksh-BHARATPUR BAROLICHHAR TEH. NADBAI (PAY POINT)Bharatpur     9660985921  Active  30-01-2016    0.00 
343 2887 Yogesh Kumar 2014-Aksh-BHARATPUR VILLAGE - SABLAN, TEHSIL - KAMAN  BHARATPUR   9887878542  Active  30-01-2016    0.00 
344 2888 Juned 2014-Aksh-BHARATPUR JUNED E-MITRA CENTRE, BILANG TEH. - KAMAN  DIST. - BHARATPUR   9549337985  Active  30-01-2016    0.00 
345 2889 Monu Jain 2014-Aksh-BHARATPUR CHEEPEE MOHALLA BASAN GATE BHARATPUR    9509530391  Active  30-01-2016    0.00 
346 2890 Devendra Kumar 2014-Aksh-BHARATPUR ANKIT PHOTO STATE GAYATRI COLLONY NADBAI Bharatpur    8947841656  Active  30-01-2016    0.00 
347 2891 Roopkishor 2014-Aksh-BHARATPUR ATAL SEWA KENDRA SINGHANIYA VILL BAND BARETHA TEH. BAYANA    8854958019  Active  30-01-2016    0.00 
348 2922 Soop Ram Jatav 2014-Aksh-BHARATPUR Paypoint PASOPA Deegbharatpur     9001596884  Active  04-02-2016    0.00 
349 2923 Naresh Kumar 2014-Aksh-BHARATPUR Paypoint BELARA KALA TEHSIL KUMHER Bharatpur     9413995932  Active  04-02-2016    0.00 
350 2924 Ram Singh 2014-Aksh-BHARATPUR CHULERA TEHSIL DEEG Bharatpur     8503085433  Active  04-02-2016    0.00 
351 2925 Suresh Chand 2014-Aksh-BHARATPUR NIGOHI, DEEG  BHARATPUR    9887013758  Active  04-02-2016    0.00 
352 2926 Shivaji 2014-Aksh-BHARATPUR NAGLA DANDU, BAHAJ  DEEG, BHARATPUR  undefined  9602327390  Active  04-02-2016    0.00 
353 2927 Narendra Singh 2014-Aksh-BHARATPUR Pay Point BEDHAM TEHSIL DEEG Bharatpur     8561067043  Active  04-02-2016    0.00 
354 2928 Pushpendra Singh 2014-Aksh-BHARATPUR VILLAGE - TODA TEHSIL- DEEG, BHARATPUR    9667844218  Active  04-02-2016    0.00 
355 2929 Mahesh Singh 2014-Aksh-BHARATPUR VILLAGE - KAKDA, TEHSIL - DEEG  BHARATPUR   9460317448  Active  04-02-2016    0.00 
356 2930 Susheel Kumar 2014-Aksh-BHARATPUR BADANGHAR, DEEG  BHARATPUR   9887905192  Active  04-02-2016    0.00 
357 2931 Shailendra Singh 2014-Aksh-BHARATPUR SHEESHWADA, DEEG  BHARATPUR Rajasthan    9783971810  Active  04-02-2016    0.00 
358 2932 Taiyyab Khan 2014-Aksh-BHARATPUR NEAR MASJID, GARHI MEWAT  BEDHAM, BHARATUR undefined  9610299014  Active  04-02-2016    0.00 
359 2933 Yogesh Kumar 2014-Aksh-BHARATPUR BUS STAND JURHERA THE. KAMAN Bharatpur     8441073636  Active  04-02-2016    0.00 
360 2934 Pramod Kumar 2014-Aksh-BHARATPUR VILLAGE - GIRSE, TEHSIL - DEEG  BHARATPUR   9950101060  Active  04-02-2016    0.00 
361 2935 Pavan Kumar 2014-Aksh-BHARATPUR MAHMADPURA TEH. BAYANA Bharatpur Rajasthan     9166456969  Active  04-02-2016    0.00 
362 2949 Ravi Lawaniya 2014-Aksh-BHARATPUR GOVERDHAN GATE, BHARATPUR    9667420119  Active  05-02-2016    0.00 
363 2959 Vipin Bansal 2014-Aksh-BHARATPUR Paypoint KHERIA PUROHIT SONGAON DEEG BHARATPUR    9024484998  Active  09-02-2016    0.00 
364 2960 Jeetendra Kumar 2014-Aksh-BHARATPUR Pay Point Shripur,Deeg Bharatpur    8058334322  Active  09-02-2016    0.00 
365 2961 Dhanesh Kumar 2014-Aksh-BHARATPUR EMITRA PAYPOINT SINSINI, BHARATPUR    9983301011  Active  09-02-2016    0.00 
366 2962 Surendra Singh 2014-Aksh-BHARATPUR EMITRA PAYPOINT KHEMRA BHARATPUR    9828434242  Active  09-02-2016    0.00 
367 2963 Baboo Lal 2014-Aksh-BHARATPUR EMITRA PAYPOINT UMRA, DEEG  BHARATPUR    9460740002  Active  09-02-2016    0.00 
368 2964 Ajay Singh 2014-Aksh-BHARATPUR EMITRA PAYPOINT SUKHAWALI, BHARATPUR    9414718383  Active  09-02-2016    0.00 
369 2965 Rinku Kumar 2014-Aksh-BHARATPUR EMITRA PAYPOINT VILLAGE - TUHIYA, TYONGA  BHARATPUR   8058561420  Active  09-02-2016    0.00 
370 2966 Asjad Khan 2014-Aksh-BHARATPUR Emitra Paypoint BHUAPUR GARHI TEHSIL NAGAR Bharatpur     9529709046  Active  09-02-2016    0.00 
371 2967 Manoj Kumar Saini 2014-Aksh-BHARATPUR EMITRA PAYPOINT SAINI MOHALLA, BEWAR  HALENA, BHARATPUR undefined  9660253382  Active  09-02-2016    0.00 
372 2968 Rajesh Kumar Gupta 2014-Aksh-BHARATPUR EMITRA PAYPOINT VILLAGE - AJROUNDA, TEHSIL - WEIR  BHARATPUR    8290136831  Active  09-02-2016    0.00 
373 2969 Sushil Kumar 2014-Aksh-BHARATPUR EMITRA PAYPOINT BANI KUMHAR, BHARATPUR     9587999024  Active  09-02-2016    0.00 
374 2970 Pramod Kumar Sharma 2014-Aksh-BHARATPUR EMITRA Paypoint BAI,WEIR  BHARATPUR   9414526914  Active  09-02-2016    0.00 
375 2971 Brijesh Kumar 2014-Aksh-BHARATPUR EMITRA PAYPOINT KUTAKPUR, CHIRAWALMALI  NAGAR, BHARATPUR  undefined  8058976432  Active  09-02-2016    0.00 
376 2972 Gopal Prasad 2014-Aksh-BHARATPUR EMITRA PAYPOINT GOVINDPURA GP MUHARI THE. WEIR Bharatpur     8696367635  Active  09-02-2016    0.00 
377 2973 Jaswant Singh 2014-Aksh-BHARATPUR EMITRA PAYPOINT KASODA GP MADAHONI THE. BHARATPUR    9001649139  Active  09-02-2016    0.00 
378 2974 Kuldep Singh 2014-Aksh-BHARATPUR EMITRA PAYPOINT GANGROLI POST HISHAMDA TEH WEIR Bharatpur     9667234915  Active  09-02-2016    0.00 
379 2975 Bharat Singh 2014-Aksh-BHARATPUR EMITRA PAYPOINT NAHREPUR GP SIRAS TEHSIL WEIR BHARATPUR    9660347922  Active  09-02-2016    0.00 
380 2976 Manoj Kumar 2014-Aksh-BHARATPUR EMITRA PAYOINT SHYAMDHAK, BAROLI CHAUTH  DEEG, BHARATPUR undefined  9413309325  Active  09-02-2016    0.00 
381 2977 Hariom 2014-Aksh-BHARATPUR EMITRA PAYPOINT GUHANA, DEEG  BHARATPUR   9414449940  Active  09-02-2016    0.00 
382 2978 Sumit Singh 2014-Aksh-BHARATPUR EMITRA PAYPOINT Bahnera Sewar Bharatpur     7297895400  Active  09-02-2016    0.00 
383 2979 Vipin Kumar 2014-Aksh-BHARATPUR EMITRA PAYPOINT SEHU GP PADMADRA TEH. DEEG Bharatpur     9694805536  Active  09-02-2016    0.00 
384 2980 Nagendra Singh 2014-Aksh-BHARATPUR EMITRA PAYPOINT NARENA CHOTH GP PASTA TEH. DEEG Bharatpur     9785350540  Active  09-02-2016    0.00 
385 2981 Kehar Singh 2014-Aksh-BHARATPUR EMITRA PAYPOINT SHAYPUR GP BARAI TEH. DEEG Bharatpur     9887327743  Active  09-02-2016    0.00 
386 2982 Rajesh Kumar 2014-Aksh-BHARATPUR SUNNY EMITRA TID Quater Ke Pass , Akarabhatta   Abu Road   9887935774  Active  09-02-2016    0.00 
387 2986 Indrajeet Boudh 2014-Aksh-BHARATPUR EMITRA PAYPOINT JHEETREDI  GP SEMLA KALAN TEH. NAGAR Bharatpur    7891847732  Active  09-02-2016    0.00 
388 2987 Nem Singh 2014-Aksh-BHARATPUR EMITRA PAYPOINT  PIRAKA GP SAIMLAKALAN TEH. NAGAR Bharatpur    9024459580  Active  09-02-2016    0.00 
389 2988 Prem Prakash 2014-Aksh-BHARATPUR POOLICE THANE KE GATE KE PASS TEHSIL NADBAI Bharatpur    8949841512  Active  10-02-2016    0.00 
390 2989 Khem Chand Sharma 2014-Aksh-BHARATPUR ATAL SEVA KENDRA, SOGAR  KUMHER, BHARATPUR undefined  9828773305  Active  10-02-2016    0.00 
391 2990 Sonu Bansal 2014-Aksh-BHARATPUR VILLAGE And POST - SABORA, TEHSIL - KUMHER  DISTRICT- BHARATPUR   9785537341  Active  10-02-2016    0.00 
392 2991 Narendra Singh 2014-Aksh-BHARATPUR VILL. POST BEDAM TEHSIL DEEG Bharatpur     9414972737  Active  10-02-2016    0.00 
393 2992 Vinod Kumar Agrawal 2014-Aksh-BHARATPUR UNCLE G EMITRA A-93RANJEET NAGAR BHARATPUR    9413113575  Active  10-02-2016    0.00 
394 2993 Kshitij Singh 2014-Aksh-BHARATPUR EMITRA Paypoint MADARPUR, CHIKSANA  SEWAR, BHARATPUR undefined  8946830750  Active  11-02-2016    0.00 
395 2994 Sahil Khan 2014-Aksh-BHARATPUR EMITRA PAYPOINT BHUTA GP MUDIYA TEH. NAGAR    9785709285  Active  11-02-2016    0.00 
396 2995 Rasid Khan 2014-Aksh-BHARATPUR EMITRA PAYPOINT BALKHEDHA GP KHKHABALI TEH. NAGAR Bharatpur     9828254582  Active  11-02-2016    0.00 
397 2996 Soran 2014-Aksh-BHARATPUR EMITRA PAYPOINT NARANA GP BANDHA CHOTH TEH. DEEG Bharatpur     9214065753  Active  11-02-2016    0.00 
398 2997 Anil Goyam 2014-Aksh-BHARATPUR EMITRA PAYPOINT ROJKI GP PENDKA TEH. NAGAR Bharatpur     9694896625  Active  11-02-2016    0.00 
399 2998 Ajab Singh Beekarwar 2014-Aksh-BHARATPUR EMITRA PAYPOINT MAI KA NAGLA GP MAI TEH. NADBAI Bharatpur     9929499299  Active  11-02-2016    0.00 
400 2999 Ankur Thanua 2014-Aksh-BHARATPUR EMITRA PAYPOINT NAUHGAYA , HATHENI  SEWAR, BHARATPUR undefined  9414208208  Active  11-02-2016    0.00 
401 3017 Satnam Singh Sandhu 2014-Aksh-BHARATPUR EMITRA Paypoint BARRPURA , AGHAPUR  CHIKSANA, SEWAR  BHARATPUR  9694565465  Active  13-02-2016    0.00 
402 3018 Bhupendra Singh 2014-Aksh-BHARATPUR BANSI BIRAHANA, KHEMRA KALAN  SEWAR, BHARATPUR undefined  9587550577  Active  13-02-2016    0.00 
403 814 Aqeela Parveen 2014-Comtech Institute of Technology-Bharatpur In Front of New  Tehsil Kaman Bharatpur  9875168525  Active  26-08-2014    79.6  6367.79 
404 840 Amarjeet Singh 2014-Comtech Institute of Technology-Bharatpur V+P Sahasan  Tehsil - Pahari Disst. - Bharatpur  8503801959  Active  03-09-2014    200.52  1288.29 
405 867 Sanjay Singh 2014-Comtech Institute of Technology-Bharatpur INFRONT OF STADIUM, JASWANT     9660718564  355  Active  15-09-2014    265.64  16565.61 
406 868 Nobat Singh 2014-Comtech Institute of Technology-Bharatpur Nobat E - Mitra Center Ibrahimpur Roopwas Bharatpur  9694407982  10  Active  15-09-2014    872.82  389.00 
407 960 DEEPAK KUMAR 2014-Comtech Institute of Technology-Bharatpur Village-RUPBAS BLOCK -RUPBAS DIS- BHARATPUR  9549786858  8917  Active  08-10-2014    8.29  41833.75 
408 990 Amit Kumar 2014-Comtech Institute of Technology-Bharatpur PNB Ke Pass Kumher Bharatpur  9784592620  188  Active  14-10-2014    70.52  47.62 
409 1053 Yogesh Kumar 2014-Comtech Institute of Technology-Bharatpur KALYAN MOHALLA WORD NO.15 KAMAN BHARTAPUR    9875114960  1079  Active  21-11-2014    .5  598.20 
410 1067 Shiv Kuamr 2014-Comtech Institute of Technology-Bharatpur SHARMA COMPUTERS NEAR GEETA MANDIR, PAI BAGH BHARATPUR (RAJ.)  9530033717  31  Active  26-11-2014    1584.38  165.20 
411 1069 Ram Niwas Saini 2014-Comtech Institute of Technology-Bharatpur NEAR GOVT. HOSPITAL, BHUWASAR  DISTT- BHARATPUR   9587082198  Active  26-11-2014    42.21  8232.94 
412 1117 Rohit Sharma 2014-Comtech Institute of Technology-Bharatpur A - 270 Jawahar Nagar Bharatpur   9828844867  678  Active  15-12-2014    6.83  354.98 
413 1119 Jeetendra singh Dagur 2014-Comtech Institute of Technology-Bharatpur Vill -Purabai khera The - Bayana Dist - Bharatpur  9928690092  990  Active  15-12-2014    3711.67  13690.74 
414 1123 Jeetu Goyal 2014-Comtech Institute of Technology-Bharatpur NAGAR ROAD, KOTWALI K SAMNE  DEEG, DISTT- BHARATPUR undefined  05641224021  38  Active  17-12-2014    70.78  13.69 
415 1237 Vishambar 2014-Comtech Institute of Technology-Bharatpur VILLAGE.POST.KHANUA TH.RUPBAS DIST.BHARTAPUR    9887622305  91  Active  29-12-2014    57.69  12282.32 
416 1457 Samim Khan 2014-Comtech Institute of Technology-Bharatpur Seekri Chak No. 1 Sikri Nagar Bharatpur    9929337831  1305  Active  14-03-2015    3164.26  15423.30 
417 1484 Mukesh Chand 2014-Comtech Institute of Technology-Bharatpur Atal Seva Kendra Khemra Kalan    9694775375  1374  Active  23-03-2015    66.52  415.34 
418 1514 Mohan Singh 2014-Comtech Institute of Technology-Bharatpur CHHONKAWADA BHUSWAR BHARATPUR    8385834352  2177  Active  25-03-2015    1413.51  7487.76 
419 1515 Sonu Ram Saini 2014-Comtech Institute of Technology-Bharatpur OLD SABZI MANDI BHUSAWARBHARATPUR    9785004950  278  Active  25-03-2015    940.98  4090.29 
420 1801 Akash Parewa 2014-Comtech Institute of Technology-Bharatpur Infront Of R.K Marbels Behind Pawan Auto Parts Bharatpur    8440901849  Active  06-04-2015    74.99  505.69 
421 1817 Ankit Kuntal 2014-Comtech Institute of Technology-Bharatpur G.P Talphara Tehsil Kumher Bharatpur    9785717239  Active  08-04-2015    3.7  11804.04 
422 1851 Shokeen 2014-Comtech Institute of Technology-Bharatpur ATAL SEWA KENDRA , BAMANWARI, PAHADI BHARATPUR   BHARATPUR  7877919161  2980  Active  14-04-2015    60.83  6476.59 
423 1852 Ved Prakash 2014-Comtech Institute of Technology-Bharatpur G.P. PHULWARA, SEWAR  BHARATPUR   9982594077  Active  14-04-2015    457.08  156.00 
424 1853 Omprakash 2014-Comtech Institute of Technology-Bharatpur V&P MAI, NADBAI  BHARATPUR   9001126308  6089  Active  14-04-2015    4268.65  6861.91 
425 1855 Yogesh Kumar 2014-Comtech Institute of Technology-Bharatpur V&P IBRAHIMPUR, ROOPBAS  BHARATPUR   8058990788  25  Active  14-04-2015    380.44  2375.40 
426 1963 Chhitar 2014-Comtech Institute of Technology-Bharatpur V&P MAI, NADBAI  BHARATPUR   9636674391  459  Active  20-04-2015    2137.27  11741.79 
427 2170 Hakmu 2014-Comtech Institute of Technology-Bharatpur ATAL SEVA KENDRA, DHAULET  PAHARI, BHARATPUR undefined  9694786724  Active  26-05-2015    862.96  19237.31 
428 2452 Tej Singh 2014-Comtech Institute of Technology-Bharatpur BARAULI RAN, NADBAI  BHARATPUR   9929996128  870  Active  24-08-2015    1371.43  64.00 
429 2493 Bhagat Singh 2014-Comtech Institute of Technology-Bharatpur PAWAN KUNJ COLONY, KAMAN  BHARATPUR   9571816262  280  Active  31-08-2015    786  90.00 
430 2494 Dayachand 2014-Comtech Institute of Technology-Bharatpur INDROLI, CHHICHHARWADI  KAMAN, BHARATPUR undefined  8058248257  940  Active  31-08-2015    618.87  2330.00 
431 2566 Geetam Singh 2014-Comtech Institute of Technology-Bharatpur ROOPWAS, MILSVA  KHERIYA BILLOCH   9001115145  97  Active  08-10-2015    .37  8532.70 
432 2609 Sunil Kumar 2014-Comtech Institute of Technology-Bharatpur B-NARAYAN GATE DHOBI MOHALLA BHARATPUR    8946908790  2467  Active  30-10-2015    880.11  814.00 
433 2610 Bharat Saini 2014-Comtech Institute of Technology-Bharatpur PURANA BUY PASS ROAD NAGAR BHARATPUR    8562010240  54  Active  30-10-2015    846.99  599.25 
434 2611 Dashrath 2014-Comtech Institute of Technology-Bharatpur RUDABAL ROAD JUHGLA PATTI,UCHCHAIN  RUPBAS BHARATPUR    8504085436  265  Active  30-10-2015    1492.61  1699.42 
435 2629 Gulshan Singal 2014-Comtech Institute of Technology-Bharatpur B.NARAYAN GATE,ATAL BANDH ROAD BHARATPUR   7791033074  50  Active  05-11-2015    3.75  18.25 
436 2630 Hitesh Kumar 2014-Comtech Institute of Technology-Bharatpur WARD NO. 19, SONPURA TILAK NAGAR BHARATPUR   9587827377  925  Active  05-11-2015    .33  3093.10 
437 2631 Tulsi Das 2014-Comtech Institute of Technology-Bharatpur PANDURI,CHENKARA RUPWAS,BHARATPUR undefined  9166693895  Active  05-11-2015    233.00 
438 2632 Prem Chand Saini 2014-Comtech Institute of Technology-Bharatpur KANJALI LINE DEEG ROAD BHARATPUR    9680883288  2937  Active  05-11-2015    .08  6853.60 
439 2641 Yunus Khan 2014-Comtech Institute of Technology-Bharatpur VPO-BHATPUR,TECH-NAGAR BHARATPUR   7073793419  1630  Active  10-11-2015    63.67  2367.00 
440 2652 Vikas Agarwal 2014-Comtech Institute of Technology-Bharatpur NEAR GANDHI PARK, PAL BAGH  BHARATPUR   8441982575  2605  Active  24-11-2015    1.64  2279.50 
441 2654 Gurdeep Kaur 2014-Comtech Institute of Technology-Bharatpur INFORT OF WELCOME HOTEL , BHARATPUR    8963816838  Active  24-11-2015    0.00 
442 2655 Madhvendra Kumar 2014-Comtech Institute of Technology-Bharatpur BEHIND OLD LAXMAN MANDIR, BHARATPUR    7610921914  2490  Active  24-11-2015    42.01  40.48 
443 2716 Gokulesh Katara 2014-Comtech Institute of Technology-Bharatpur SUBHASH NAGAR NEAR ADITI CLINIC, GOLPURA ROAD BHARATPUR    7740818852  4671  Active  08-12-2015    1099.88  4.56 
444 2741 Mazzal Khan 2014-Comtech Institute of Technology-Bharatpur VILL- JATWAS, UDKI DALLA  NAGAR, BHARATPUR undefined  9672281484  810  Active  14-12-2015    7.64  3809.78 
445 2742 Bhagat Singh 2014-Comtech Institute of Technology-Bharatpur VILL- NOORPUR, GP-GHUSHYARI  SEWAR, BHARATPUR undefined  9837350411  Active  14-12-2015    90.00 
446 2743 Indrajeet Singh 2014-Comtech Institute of Technology-Bharatpur Santruk Kumher Bharatpur    9785615761  97  Active  14-12-2015    550.63  22.33 
447 2748 Narendra Kumar 2014-Comtech Institute of Technology-Bharatpur VILL:JATWAS NAGAR BHARATPUR    8502921843  Active  18-12-2015    492.00 
448 2767 Laxman Singh 2014-Comtech Institute of Technology-Bharatpur AGRASEN SCHOOL KE PASS, SUBHASH NAGAR   BHARATPUR   8058202702  8824  Active  04-01-2016    455.19  79.43 
449 2768 Gulab Singh 2014-Comtech Institute of Technology-Bharatpur GP- GULPADA, BLOCK- NAGARR  BHARATPUR   8741081160  965  Active  04-01-2016    568.89  3184.07 
450 2793 Anil Kumar 2014-Comtech Institute of Technology-Bharatpur WARD NO- 13, NEAR SOLANKI HOSPITAL  BHARATPUR   8503940935  386  Active  06-01-2016    6.75  0.00 
451 2794 Balkishan 2014-Comtech Institute of Technology-Bharatpur VIJAY NAGAR COLONY, SARAS CHAURAHA  BHARATPUR   8979529210  460  Active  06-01-2016    8.84  22.82 
452 2795 Teerath Raj 2014-Comtech Institute of Technology-Bharatpur SALPURPATHI , SIKARI NAGAR, BHARATPUR undefined  9549083991  Active  06-01-2016    386.00 
453 2796 Umesh Chand Saini 2014-Comtech Institute of Technology-Bharatpur VILL- NAYAMADPUR, POST- DHARSONI  WEIR , BHARATPUR undefined  9571805384  Active  06-01-2016    311.00 
454 2797 Hitesh Goyal 2014-Comtech Institute of Technology-Bharatpur SUB TEHSIL OFFICE PARAH, BHARATPUR    7891307585  1480  Active  06-01-2016    500  271.00 
455 2798 Jeetesh Kumar 2014-Comtech Institute of Technology-Bharatpur VPO- KHARERA, UCHAIN   ROOPWAS, BHARATPUR undefined  9887546526  Active  06-01-2016    168.00 
456 2799 Sanjay Singh Yadav 2014-Comtech Institute of Technology-Bharatpur VILL- GULPADA, NAGAR  BHARATPUR   9928795656  Active  06-01-2016    556.00 
457 2800 Harvendra Kumar 2014-Comtech Institute of Technology-Bharatpur ATAL SEVA KENDRA, DUMARIYA  RUPWAS, BHARATPUR undefined  9983939425  900  Active  06-01-2016    202.15  607.70 
458 2801 Munfaid Khan 2014-Comtech Institute of Technology-Bharatpur JUMMA BANAINI DHONLKA, PADALWAS  TEH-NAGAR, BHARATPUR undefined  9610567110  Active  06-01-2016    0.00 
459 2802 Vishnu Kumar 2014-Comtech Institute of Technology-Bharatpur GP- SOUMKA, TEH- KAMAN  BHARATPUR   9672439280  Active  06-01-2016    0.00 
460 2803 Shailendra Singh 2014-Comtech Institute of Technology-Bharatpur NEAR BUS STAND, SUBHASH NAGAR  BHARATPUR   8947070110  990  Active  06-01-2016    9.13 
461 2804 Parshottam 2014-Comtech Institute of Technology-Bharatpur KANWARA , TEHSIL- KAMAN  BHARATPUR   8740976447  360  Active  06-01-2016    465.72  666.24 
462 2805 Sirajuddin 2014-Comtech Institute of Technology-Bharatpur ATAL SEWA KENDRA SOMKA, KAMAN  BHARATPUR   8696614061  Active  06-01-2016    0.00 
463 2806 Palvendra Singh 2014-Comtech Institute of Technology-Bharatpur NEAR JAIN MANDIR, SEWAR ROAD  BHARATPUR   9785843476  Active  06-01-2016    0.00 
464 2807 Gordhan Prasad 2014-Comtech Institute of Technology-Bharatpur VILL- SIRROND, RUPWAS  BHARATPUR   7726854458  Active  06-01-2016    0.00 
465 2808 Ravindra Singh 2014-Comtech Institute of Technology-Bharatpur NEAR KANNI GURJAR CIRCLE, BHARATPUR    9928902445  1876  Active  06-01-2016    6.31  55.37 
466 2860 Uttamchand Sharma 2014-Comtech Institute of Technology-Bharatpur ATAL SEVA KENDRA PAR, SEWAR  BHARATPUR   9828356142  Active  19-01-2016    0.00 
467 2861 Devendra Sharma 2014-Comtech Institute of Technology-Bharatpur ATAL SEVA KENDRA PINGORA, NADBAI  BHARATPUR   8739826723  2000  Active  19-01-2016    0.00 
468 2868 Veerendra Kumar 2014-Comtech Institute of Technology-Bharatpur BYANA ROAD JARILA, BHAWANPURA  ROOPBAS, BHARATPUR undefined  9772300192  Active  25-01-2016    0.00 
469 2869 Omprakash 2014-Comtech Institute of Technology-Bharatpur EMITRA PAY POINT NAGLA MAI, GP- MAI  NADMAI, BHARATPUR undefined  9001123608  3970  Active  25-01-2016    2100  27.38 
470 2875 Bajib 2014-Comtech Institute of Technology-Bharatpur VILL DUNAWAL, NAGAR   BHARATPUR   9549549063  Active  28-01-2016    0.00 
471 2876 Lavesh Mudgal 2014-Comtech Institute of Technology-Bharatpur SHARMA EMITRA KENDRA, KHEDIYA MODE  NADBAI, BHARATPUR undefined  7737303119  Active  28-01-2016    38.00 
472 2877 Rajveer Singh 2014-Comtech Institute of Technology-Bharatpur NET WEB SOFT EMITRA CENTER, NEAR SARAS HOTEL  VIJAYNAGAR, BHARATPUR undefined  8233196869  1340  Active  28-01-2016    801  38.64 
473 2878 Balram Singh 2014-Comtech Institute of Technology-Bharatpur BAJRANG ROJGAR CENTER, BACHHAMADI  SEWAR, BHARATPUR undefined  9549959201  Active  28-01-2016    0.00 
474 2879 Mohammad Riyajudden 2014-Comtech Institute of Technology-Bharatpur VILL- CHAK NADOLA, GP- SUNEHRA  KAMAN, BHARATPUR undefined  9785314343  Active  28-01-2016    0.00 
475 2880 Mubeen Khan 2014-Comtech Institute of Technology-Bharatpur ATAL SEVA KENDRA PAPRA, TEH- PAHARI  BHARATPUR   9887345240  Active  28-01-2016    0.00 
476 2881 Vivek Kumar 2014-Comtech Institute of Technology-Bharatpur ATAL SEVA KANDRA DAHINA GAUV,ROOPBAS BHARATPUR   8058329140  Active  28-01-2016    0.00 
477 2882 Pramod Yadav 2014-Comtech Institute of Technology-Bharatpur ATAL SEWA KENDRA JHAROLI, SEWAR  BHARATPUR   8432182838  Active  28-01-2016    0.00 
478 2895 Shokeen 2014-Comtech Institute of Technology-Bharatpur E-MITRA PAY POINT KUKARPURI GP:BAMANWARI PANCHYAT SAMITI:-PAHADI, BHARATPUR    7877919161  Active  30-01-2016    100  0.00 
479 2902 Anil Kumar 2014-Comtech Institute of Technology-Bharatpur NEAR BUS STAND PAHARI,BHARATPUR    9509274849  340  Active  02-02-2016    300  9.13 
480 2903 Harvir Singh 2014-Comtech Institute of Technology-Bharatpur SENHTI KUMHER,BHARATPUR    8769964147  Active  02-02-2016    0.00 
481 2904 Pramod Kumar 2014-Comtech Institute of Technology-Bharatpur VPO EAWARA KUMHER,BHARATPUR    9667429101  Active  02-02-2016    0.00 
482 2905 Satyendra Singh 2014-Comtech Institute of Technology-Bharatpur VILL-MUDHERA,BHARATPUR    9460925072  Active  02-02-2016    0.00 
483 2906 Sunil Kumar Jiroliya 2014-Comtech Institute of Technology-Bharatpur VPO- JHARKAI, TEH- NADBAI  BHARATPUR   9461922444  Active  02-02-2016    0.00 
484 2907 Yashpal Saini 2014-Comtech Institute of Technology-Bharatpur VPO- PATHENA, WEIR  BHARATPUR   8502851818  Active  02-02-2016    0.00 
485 2936 Jitendra Kumar 2014-Comtech Institute of Technology-Bharatpur E-MITRA PAY POINT JURHARIGP:PAI, KAMAN BHARATPUR    8440810723  Active  04-02-2016    0.00 
486 2985 Susheela Devi 2014-Comtech Institute of Technology-Bharatpur E-MITRA PAY POINT BIRAR GP:SABLANA KAMAN BHARATPUR    9680135253  Active  09-02-2016    0.00 
487 3005 Robin Kumar 2014-Comtech Institute of Technology-Bharatpur ROBIN EMITRA CENTER, NEAR BUS STAND  KHUMHER, BHARATPUR undefined  9887360761  5000  Active  11-02-2016    0.00 
488 3008 Dharm Singh 2014-Comtech Institute of Technology-Bharatpur CHHOTE RAM JI MANDIR, HIGH SCHOOL KE PASS  KAMAN, BHARATPUR undefined  9549914172  Active  12-02-2016    0.00 
489 3009 Shiv Singh 2014-Comtech Institute of Technology-Bharatpur KANYA SHALA SCHOOL KI SAMNAY, NAGAR ROAD  JANUTHAR , BHARATPUR undefined  8094331933  Active  12-02-2016    0.00 
490 3010 Bhola Ram 2014-Comtech Institute of Technology-Bharatpur NIKKI COMPUTERS & EMITRA CENTER NAJDEEKI PETROL PUMP KE SAMNE, PAHARI  BHARATPUR   7023101423  Active  12-02-2016    0.00 
491 3011 Tej Singh Yadav 2014-Comtech Institute of Technology-Bharatpur GP-BERRU,TEH-NAGAR BHARATPUR   9772676379  Active  12-02-2016    0.00 
492 3012 Abhay Singh Chaudhary 2014-Comtech Institute of Technology-Bharatpur ATAL SEVA KENDRA , WEIR  BHARATPUR   9001929767  Active  12-02-2016    0.00 
493 3013 Monu Kumar 2014-Comtech Institute of Technology-Bharatpur ATAL SEWA KENDRA KHEDI DEVI SINGH, NADBAI  BHARATPUR   8386840056  Active  12-02-2016    0.00 
494 3014 Manoj Kumar Yadav 2014-Comtech Institute of Technology-Bharatpur ATAL SEWA KENDRA, BERRO  BHARATPUR   9828741131  Active  12-02-2016    0.00 
495 1434 Pushpendra Kumar 2014-CMS eMitra-Bharatpur Main Kachari Road Bayana Dis. Bharatpur    05648-225122  943  Active  02-03-2015    1926.08  17688.72 
496 1435 Yashwant Yadav 2014-CMS eMitra-Bharatpur GARM BISDA POST JHAROLI SEWAR BHARATPUR    8432182838  10  Active  02-03-2015    276.21  19471.48 
497 1460 Amit Kumar Vyas 2014-CMS eMitra-Bharatpur Jaghina Gate Bharatpur    7615829100  40  Active  17-03-2015    372.96  691.63 
498 1511 Mahesh Chand 2014-CMS eMitra-Bharatpur Gram Sendhli Weir Bharatpur    9887091919  180  Active  25-03-2015    180.74  6237.94 
499 1512 Bhagwan Singh 2014-CMS eMitra-Bharatpur Gram Itamda Bhusawar Bharatpur    9887847501  544  Active  25-03-2015    7195.95  19721.04 
500 2134 Naresh Chand Gupta 2014-CMS eMitra-Bharatpur KAKAJI MARKET KE PASS CHOUBURJA BAZAR BHARATPUR    9413650001  102  Active  14-05-2015    647.18  1395.06 
501 2221 Indar Singh 2014-CMS eMitra-Bharatpur GRAM-GIVINDPURA POST-MUHARI WEIR BHARATPUR    05643272582  789  Active  29-05-2015    1583.42  5245.94 
502 2223 Jitendra Prakash 2014-CMS eMitra-Bharatpur Jawahar Nagar Bharatpur     8829839877  19  Active  29-05-2015    133.69  609.49 
503 2481 Govind Singh 2014-CMS eMitra-Bharatpur BAGHEL PHOTO STATE,HELAK CHORAHA  SAVER, BHARATPUR undefined  9785139859  288  Active  28-08-2015    .65  4044.28 
504 2592 Prabhu Dayal 2014-CMS eMitra-Bharatpur GRAM PANHORI TEH. DEEG BHARATPUR    9785622773  Active  19-10-2015    1669.5  3454.00 
505 2634 Manoj Kumar Katara 2014-CMS eMitra-Bharatpur Ganpati Market Anah Gate Bharatpur Raj.    05644229003  1369  Active  06-11-2015    .87  1862.96 
506 833 pradlad shing 2014-Vakrangee-Bharatpur jaya usrani kumher bharatpur   9667039751  93  Active  02-09-2014    .05  210.60 
507 834 moti ram 2014-Vakrangee-Bharatpur khan khera dist:- bharatpur   8890214708  900  Active  02-09-2014    8000.83  46132.50 
508 836 pushp lata 2014-Vakrangee-Bharatpur vpo-jharonti block-weit bharatpur  9414681595  1262  Active  02-09-2014    1261.62  5560.53 
509 837 Shyambeer Chauhan 2014-Vakrangee-Bharatpur vpo-kharera block:-rupbas bharatpur  9414975080  1564  Active  02-09-2014    442.68  5862.62 
510 838 radhe shyam 2014-Vakrangee-Bharatpur singhara block bayana bharatpur  9887368316  2718  Active  02-09-2014    305.17  4406.04 
511 839 Pramod Kumar 2014-Vakrangee-Bharatpur VPO - Siras BLOCK - Weirs Dist - Bharatpur  9887223330  112  Active  03-09-2014    29.94  13335.77 
512 844 Raj kumar 2014-Vakrangee-Bharatpur VPO - Reethauthi Block - Kunher Dist - Bharatpur  9783924366  21  Active  03-09-2014    259.61  1053.34 
513 848 Ravindra Kumar Meena 2014-Vakrangee-Bharatpur VPO- Chaintoli, Block - Weir Dist. - Bharatpur  9468666284  2177  Active  04-09-2014    1618.22  3802.39 
514 849 Ashok Lawaniya 2014-Vakrangee-Bharatpur VPO- Halena,  Block - Weir Dist. - Bharatpur  9414903955  1478  Active  04-09-2014    273.33  4706.96 
515 851 Vipin Kumar 2014-Vakrangee-Bharatpur sikandara Block - Bayana Disst. - Bharatpur  8094283058  162  Active  04-09-2014    3081.27  8198.70 
516 852 Raju Singh 2014-Vakrangee-Bharatpur Takha, G/P - Ta Kha  block - Kumher Disst. - Bharatpur  9694341720  1893  Active  04-09-2014    1940.31  4586.53 
517 853 Lokesh Kumar 2014-Vakrangee-Bharatpur Kot  Bayana Bharatpur  9799320408  10  Active  04-09-2014    1073.1  2393.00 
518 854 Prathveeraj 2014-Vakrangee-Bharatpur Baroda Ayana Disst. - Bhartpur  8003686804  46  Active  04-09-2014    4584.44  10562.72 
519 903 Gaurav Kumar 2014-Vakrangee-Bharatpur VPO- Khandewla Block - Nagar Dist. - Bharatpur  9461080611  12  Active  17-09-2014    4750.72  13041.74 
520 904 Haripal 2014-Vakrangee-Bharatpur Ward No. 13  Naharganj mohalla Kumher Bharatpur  9460659190  128  Active  17-09-2014    48.94  150.59 
521 905 Naresh Kumar Sharma 2014-Vakrangee-Bharatpur Gangora, Nagar Bharatpur  8094577032  493  Active  17-09-2014    4853.48  25141.59 
522 906 Rajesh Kumar 2014-Vakrangee-Bharatpur Nagla Heeradas, Opp Numaish Ground Bharatpur  9309314407  106  Active  17-09-2014    1.35  6318.35 
523 922 PRADEEP SINGH 2014-Vakrangee-Bharatpur Ward no 16 Neeraj Mishthan Bhandhar Ke Pichhe Kumher Bhartpur   9166545061  1637  Active  19-09-2014    .37  5993.17 
524 925 Poonam Chand Saini 2014-Vakrangee-Bharatpur Barauli  Weir,Bharatpur   9782754965  78  Active  20-09-2014    4235.82  22968.56 
525 926 Rajendra Kumar Sharma 2014-Vakrangee-Bharatpur Sharma Computers, Khodi Mod Deeg Road, Nagar Bharatpur  9828537748  1172  Active  20-09-2014    .12  2290.88 
526 935 Bhagwan Singh Meena 2014-Vakrangee-Bharatpur Barkhera  Bayana Bharatpur  9414890478  544  Active  26-09-2014    5339  15676.10 
527 936 Anil Kumar Mathur 2014-Vakrangee-Bharatpur Mathur Internet & Emitra Center Basan Gate Kotwali Bharatpur  9571511899  7661  Active  26-09-2014    .18  10440.36 
528 937 Khushi Ram 2014-Vakrangee-Bharatpur Nagla Beeja Rupbas Bharatpur  9784309994  641  Active  26-09-2014    809.16  2810.38 
529 938 RAJENDRA DAGUR 2014-Vakrangee-Bharatpur Dagur emitra V/P nagar Teh- nagar near govt hospital Bhartpur   9667175659  2847  Active  26-09-2014    40607.82 
530 939 Sanjay Singh 2014-Vakrangee-Bharatpur Peepla Sewar Bharatpur  9694109800  54  Active  26-09-2014    .14  19903.60 
531 941 SHER SINGH 2014-Vakrangee-Bharatpur Cheema emitra Nand Hotel ke pass ward no 19 Bhartpur   9828580712  6556  Active  26-09-2014    16.09  12406.42 
532 943 JUGAL BIHARI 2014-Vakrangee-Bharatpur Purohit emitra center kotwali bazar near sitaramji mandir Bhartpur   9783319205  4532  Active  26-09-2014    149.47  2143.78 
533 945 SANJAY KUMAR 2014-Vakrangee-Bharatpur Sanjay emitra Ward no 05 Near Panchyat Samiti Sewar Bhartpur   9928816222  5326  Active  26-09-2014    1392.02  4234.94 
534 946 JITENDRA KUMAR 2014-Vakrangee-Bharatpur Jitendra emitra center Kumher Bhartpur   8003601746  1001  Active  26-09-2014    7.44  4060.23 
535 959 Shiv Kumar Sharma 2014-Vakrangee-Bharatpur Marauli, Rupbas Bharatpur   9785719204  6077  Active  08-10-2014    500.45  9951.07 
536 968 Rohit Sharma 2014-Vakrangee-Bharatpur Tilak Nagar Bharatpur   8003391909  5415  Active  09-10-2014    800.19  472.90 
537 969 Paras Ram Saini 2014-Vakrangee-Bharatpur Near Bus Stand Deeg Bharatpur   9529003555  2832  Active  09-10-2014    3606.34  989.63 
538 1024 Manoj Kumar 2014-Vakrangee-Bharatpur Kumher Road Bohra Market,Bharatpur    9983664711  217  Active  29-10-2014    197.27  11242.20 
539 1025 Kali Charan 2014-Vakrangee-Bharatpur Jahangeerpur,Nadbai,Bharatpur     9602761341  1114  Active  29-10-2014    8930.48  26315.49 
540 1026 Parasram 2014-Vakrangee-Bharatpur Talchhera,Nadbai,Bharatpur    9667865574  1860  Active  29-10-2014    11.47  8777.24 
541 1049 Bhupendra Singh 2014-Vakrangee-Bharatpur Padawali,Bayana Bharatpur   9636059531  331  Active  21-11-2014    .13  19118.42 
542 1050 Lakhan Singh 2014-Vakrangee-Bharatpur Gazipur,Bayana Bharatpur   9680121506  66  Active  21-11-2014    39.87  3156.59 
543 1054 Hemendra Kumar 2014-Vakrangee-Bharatpur VPO-Dandoo,Block-Kumher Distt.-Bharatpur   9785202112  95  Active  21-11-2014    .45  3513.75 
544 1055 Jitendra Singh 2014-Vakrangee-Bharatpur VPO-Thana Dang,Block-Bayana Distt.-Bharatpur   8740979934  1129  Active  22-11-2014    644.02  5646.51 
545 1056 Irfan 2014-Vakrangee-Bharatpur VPO-Nagla Kundan,Block-Kaman Distt.-Bharatpur   9982562793  375  Active  22-11-2014    42.41  7729.19 
546 1063 Jagat Singh 2014-Vakrangee-Bharatpur VPO-Karwari,Block-Bayana Distt.-Bharatpur   9875036609  Active  25-11-2014    3.46  136.18 
547 1070 Anil Kumar 2014-Vakrangee-Bharatpur Anil Emitra,Bapu Bazar Nagar,Bharatpur undefined  9784397159  985  Active  26-11-2014    10.17  19716.65 
548 1071 Saurabh Godha 2014-Vakrangee-Bharatpur Near Kotwali,Chauturja Bharatpur   9509618018  3140  Active  26-11-2014    .4  2304.17 
549 1084 Sarita 2014-Vakrangee-Bharatpur Bahra Rekhapur,Rupbas Bharatpur   8058592215  -15  Active  27-11-2014    .47  1746.94 
550 1085 Kapil Goyal 2014-Vakrangee-Bharatpur BAYANA, BHARATPUR   RAJASTHAN,PIN CODE NO - 321401 undefined  9667548958  57  Active  27-11-2014    801.49  4170.62 
551 1091 Ravi Kumar 2014-Vakrangee-Bharatpur Nahroli Deshwar,Shishwada Deeg,Bharatpur undefined  8875023730  4356  Active  27-11-2014    .61  9244.90 
552 1104 Narendra Kumar 2014-Vakrangee-Bharatpur VPO-Sedpura,Block-Rupbas Distt.-Bharatpur   05645276427  605  Active  04-12-2014    1000.57  26759.11 
553 1114 Bhag Chand Saini 2014-Vakrangee-Bharatpur Chak Dharsoni,Block-Weir Distt.-BhAratpur   9414758409  29  Active  11-12-2014    .52  2502.25 
554 1115 Pradeep Kumar 2014-Vakrangee-Bharatpur Agarwal Printer,Weir Bharatpur   9414713614  172  Active  11-12-2014    461.33  175.27 
555 1116 Rajkumar 2014-Vakrangee-Bharatpur Malipura,Sewar Bharatpur   9782734407  30  Active  11-12-2014    531.84  1268.00 
556 1128 Harish Kumar 2014-Vakrangee-Bharatpur VPO-Rarah,Block-Kumher Distt.-Bharatpur   9782506026  950  Active  18-12-2014    285.88  2093.28 
557 1129 Areef Khan 2014-Vakrangee-Bharatpur Malki,Nagar Bharatpur   9828171290  10  Active  18-12-2014    2033.11  7988.02 
558 1136 Jitendra Singh 2014-Vakrangee-Bharatpur Village Nonera Thesil Kaman    7690908990  1580  Active  19-12-2014    50.79  1764.07 
559 1137 Rahul Bansal 2014-Vakrangee-Bharatpur Mangal Colony Rudaval    9875203203  25  Active  19-12-2014    .11  832.98 
560 1138 Hardev Singh 2014-Vakrangee-Bharatpur Village Januthar Deeg Bharatpur    8504925138  Active  19-12-2014    27003.25  45527.00 
561 1140 Hitesh Garg 2014-Vakrangee-Bharatpur Jurhera Kaman    9549677294  1810  Active  19-12-2014    .07  6887.87 
562 1219 Rajveer Singh 2014-Vakrangee-Bharatpur RARODA , KHAN KHEDA  BAYANA ,BHARATPUR undefined  9828835905  Active  22-12-2014    19.3  2643.98 
563 1221 Shailender Kumar Saini 2014-Vakrangee-Bharatpur Nai Sadak Deeg    9785662496  Active  23-12-2014    30.93  3288.28 
564 1232 Ashish Kumar 2014-Vakrangee-Bharatpur VPO-Gurdha Nadi,Block-Bayana Distt.-Bharatpur   8290557872  34  Active  26-12-2014    83.13  7362.80 
565 1238 Ram Babu 2014-Vakrangee-Bharatpur Near Chotala Ki Shop  Subhash Nagar Bharatpur   9680834848  4788  Active  29-12-2014    1135.2  34548.36 
566 1239 Hem Kumar 2014-Vakrangee-Bharatpur Bhuda Gate Deeg    05641220016  257  Active  29-12-2014    44.92  1147.89 
567 1240 Gulshan Sharma 2014-Vakrangee-Bharatpur Rajiv Gandhi Seva Kendra Village Post Bachhmadi(Noh)Bharatpur    9660312010  985  Active  29-12-2014    .02  5639.76 
568 1242 Suneel Kumar 2014-Vakrangee-Bharatpur INFRONT OF SBBJ BANK, ARYA SAMAJ ROAD  BAYANA, BHARATPUR undefined  8432663479  128  Active  07-01-2015    303.12  3887.94 
569 1243 Subran Singh 2014-Vakrangee-Bharatpur JANOOTHAR, TEHSIL - DEEG  BHARATPUR   9829547617  249  Active  07-01-2015    .73  3368.64 
570 1247 Navdeep Singh 2014-Vakrangee-Bharatpur RAJIV GANDHI KENDRA KHER,BAYANA BHARATPUR(RAJASTHAN)   9694716874  945  Active  07-01-2015    1348.85  19177.22 
571 1248 Raju Lal 2014-Vakrangee-Bharatpur Ghor Mahua Sawer    7891035727  1867  Active  07-01-2015    1858.96  18234.33 
572 1262 Manish Chhabra 2014-Vakrangee-Bharatpur SHIV NAGAR, BEHING SINGHAL OIL MILL  BHARATPUR   8854878487  1087  Active  10-01-2015    .7  3377.12 
573 1264 Akhalesh Kumar 2014-Vakrangee-Bharatpur GARG CYBER ZONE, ATALBAND  BHARATPUR   7877295528  803  Active  10-01-2015    .27  7191.79 
574 1268 Mohit Kumar 2014-Vakrangee-Bharatpur Near Pashu Hosptal, Kachahari Road  Bharatpur   9461868469  2314  Active  12-01-2015    2312.33  25311.28 
575 1280 Girish Kumar 2014-Vakrangee-Bharatpur INFRONT OF SAMUDAYAK BHAWAN, RIICO ROAD  BHARATPUR   8952043136  339  Active  16-01-2015    2017.4  6794.38 
576 1289 Dharmender Singh 2014-Vakrangee-Bharatpur VPO-Pali,Block-Weir Distt.-Bharatpur   9928134310  7765  Active  21-01-2015    .08  22396.91 
577 1290 Sakir Husain 2014-Vakrangee-Bharatpur Ladamka,Nagar Bharatpur   9772603960  678  Active  21-01-2015    6052.34  47093.76 
578 1291 Ganga Singh Yadav 2014-Vakrangee-Bharatpur VPO-Dhilawati,Block-Kaman Distt.-Bharatpur   8875023726  943  Active  21-01-2015    940.71  13492.02 
579 1292 Ram Gopal 2014-Vakrangee-Bharatpur INFRONT OF MSJ COLLAGE, BHARATPUR    9782290010  736  Active  21-01-2015    29.41  26.00 
580 1295 Mohini Dubey 2014-Vakrangee-Bharatpur Behind Kendriya Bus Stand, Bharatpur    8058276502  317  Active  22-01-2015    41.83  8382.78 
581 1296 Indrjeet Singh 2014-Vakrangee-Bharatpur Rajeev Gandhi Seva Kendra Jatolithun     9887696704  20  Active  22-01-2015    .88  3201.12 
582 1298 Sachin Khandelwal 2014-Vakrangee-Bharatpur Deeg Road Kumher    9024221353  4456  Active  22-01-2015    5072.99  4697.96 
583 1299 Lokesh Singh 2014-Vakrangee-Bharatpur Village Toda Post Hingota Deeg Bharatpur     8441097557  880  Active  22-01-2015    694.33  1545.25 
584 1300 Nagendra Singh 2014-Vakrangee-Bharatpur Village Jatoli Thoon Deeg Bharatpur    8239320003  1593  Active  22-01-2015    127.92  2094.00 
585 1301 Akhalesh Kumar 2014-Vakrangee-Bharatpur Near Lal Darbaja Bayana Bharatpur    9672575195  192  Active  22-01-2015    148.47  10121.88 
586 1302 Manoj Kumar 2014-Vakrangee-Bharatpur Ward-08,Vijay Nagar Colony Bharatpur   9785050703  704  Active  22-01-2015    88.84  5365.41 
587 1303 Ramendra Singh 2014-Vakrangee-Bharatpur NEAR COLLECTRATE CAMPUS, BHARATPUR    8058468405  941  Active  22-01-2015    4866.07  11201.39 
588 1304 Ranjeet Singh 2014-Vakrangee-Bharatpur IT KENDRA, HATHAINI  BLOCK- SEWAR, BHARATPUR undefined  9887962044  100  Active  22-01-2015    .18  8681.98 
589 1305 Rameshwar 2014-Vakrangee-Bharatpur IT KENDRA, GHUSHYARI  BLOCK- SEWAR, BHARATPUR undefined  8290556585  11  Active  22-01-2015    359.98  1196.21 
590 1306 Gaurav Kumar 2014-Vakrangee-Bharatpur Anah Gate Pather Ki Taal Bharatpur    9887126355  56  Active  23-01-2015    17.95  8597.04 
591 1318 Govind 2014-Vakrangee-Bharatpur SHERGADH,BAYANA BHARATPUR   9413312658  2736  Active  30-01-2015    650.96  10169.18 
592 1319 Mukesh Kumar Dubey 2014-Vakrangee-Bharatpur WARD-02,BEHIND BUS DEPOT HELAR HOUSE,SUBHASH NAGAR BHARATPUR  9414889065  245  Active  30-01-2015    556.99  1635.68 
593 1326 Niranjan Lal Gauttam 2014-Vakrangee-Bharatpur 31,Kalyan Mauhlla Kaman,Bharatpur undefined  9828025135  569  Active  03-02-2015    44.5  116.32 
594 1327 Ramesh Singh 2014-Vakrangee-Bharatpur VIL-KHANSWARA POST -PAPRERA TEH-KUMHER DIST-BHARATPUR    9636191024  2029  Active  03-02-2015    1502.3  4213.13 
595 1328 Dinesh Kumar 2014-Vakrangee-Bharatpur Dinesh Emitra,Infront Of MSJ Collage Bharatpur,Bharatpur undefined  9649103299  220  Active  03-02-2015    103.63  180.43 
596 1330 Prem Singh 2014-Vakrangee-Bharatpur IT KENDRA, JHAROLI  BLOCK - SEWAR, BHARATPUR undefined  8952013367  Active  03-02-2015    1413.58  4890.70 
597 1336 Mubarik 2014-Vakrangee-Bharatpur VPO Bhonri The. Pahari Bharatpur    9587773344  450  Active  03-02-2015    6114.92  23062.52 
598 1337 Rashid 2014-Vakrangee-Bharatpur Village Nandera Teh. Kaman Bharatpur    8094509630  270  Active  03-02-2015    8.01  1945.46 
599 1362 Hari Das 2014-Vakrangee-Bharatpur BEHIND PHOOL SINGH TANT HOUSE, HEERADAS  BHARATPUR   9887540721  93  Active  05-02-2015    .89  1692.55 
600 1363 Ajay Singh 2014-Vakrangee-Bharatpur IT KENDRA, MOROLI KALAN  TEH. & DISTRICT - BHARATPUR   9694235107  210  Active  05-02-2015    776.47  10947.93 
601 1364 Prashan Kumar 2014-Vakrangee-Bharatpur IT KENDRA, BILOTHI  TEHSIL & DISTRICT - BHARATPUR   8696620636  10  Active  05-02-2015    37.48  872.16 
602 1365 Rohtash Kumar 2014-Vakrangee-Bharatpur KASAI MOHALLA, PAHARI  BHARATPUR   8058273926  50  Active  06-02-2015    785.05  1435.50 
603 1366 Neeraj Kumar Sharma 2014-Vakrangee-Bharatpur Kaman Bypass Road Neem Ghata Mohalla Deeg    9414695025  743  Active  06-02-2015    .73  3412.13 
604 1367 Kapil Khandelwal 2014-Vakrangee-Bharatpur SHRI RADHE COMMUNICATION, NEW MANDI  BHARATPUR   8890525962  796  Active  06-02-2015    9.76  1463.33 
605 1368 Anand Kumar 2014-Vakrangee-Bharatpur SHASHTRI SHALA ROAD, NAGAR  BHARATPUR   485  Active  06-02-2015    .96  2418.74 
606 1369 Rajendra Singh 2014-Vakrangee-Bharatpur AZADPURA, CHAK DHARSONI  WEIR, BHARATPUR undefined  9694508308  2920  Active  06-02-2015    297.7  14665.96 
607 1370 Surjeet Singh 2014-Vakrangee-Bharatpur NEWADA, WEIR  BHARATPUR   9928002775  11  Active  06-02-2015    5552.29  14259.56 
608 1371 Braj Gopal 2014-Vakrangee-Bharatpur ALIPUR, BHUSAWAR BHARATPUR   8290853081  280  Active  06-02-2015    1291.99  13673.88 
609 1373 Harish Kumar 2014-Vakrangee-Bharatpur V & P - JAGHINA, BHARATPUR    9509847007  9796  Active  06-02-2015    877  21553.63 
610 1374 Vishambhar Singh 2014-Vakrangee-Bharatpur Tyohari,Weir Bharatpur   9414388760  467  Active  06-02-2015    3963.33  5290.18 
611 1375 Govind Sharan 2014-Vakrangee-Bharatpur MAIN BAZAR, OLD SABJI MANDI  DEEG, BHARATPUR undefined  8290540930  41  Active  06-02-2015    35.99  26.38 
612 1380 Ramakant Sharma 2014-Vakrangee-Bharatpur Sirrond,Rupbas Bharatpur   9982679225  1045  Active  11-02-2015    3634.4  17926.49 
613 1382 Rahul Saini 2014-Vakrangee-Bharatpur VPO-Jhanjhar,Block-Nagar Distt.-Bharatpur   8875023726  104  Active  12-02-2015    2973.47  10698.00 
614 1388 Lalit Kumar 2014-Vakrangee-Bharatpur NEAR SARAS CHAURAHA, VIJAY NAGAR  BHARATPUR   8058845059  77  Active  18-02-2015    12.66  494.38 
615 1400 Dharmendra Kumar 2014-Vakrangee-Bharatpur VPO Pahari Teh. Pahari Bharatpur    9694816516  65  Active  19-02-2015    3117.55  12416.13 
616 1401 Gajendra Singh Chandel 2014-Vakrangee-Bharatpur Rajiv Gandhi Seva Kendra Guhana    9694826177  304  Active  19-02-2015    1302.49  4901.89 
617 1402 Rahul Dev 2014-Vakrangee-Bharatpur WARD NO. 03, PAHARI  BHARATPUR   950953507  1681  Active  19-02-2015    2797.92  8037.43 
618 1404 Ram Kishan 2014-Vakrangee-Bharatpur V&P- JATOLI RATHBHAN, BLOCK- SEWAR  BHARATPUR   8432422135  10  Active  19-02-2015    7.9  6.42 
619 1409 Vikas Kumar Khandelwal 2014-Vakrangee-Bharatpur Rajiv Gandhi Seva Kendra Panhori    8058926340  55  Active  19-02-2015    1787.7  3507.26 
620 1410 Umesh Chand 2014-Vakrangee-Bharatpur V&P PAR, BLOCK- SEWAR  BHARATPUR   9887750088  250  Active  19-02-2015    2001.68  8434.00 
621 1411 Dhanpal Singh 2014-Vakrangee-Bharatpur V&P- KATHAUL, PAHARI  BHARATPUR   9680428449  510  Active  19-02-2015    4881.99  16513.50 
622 1415 Sumant Singh 2014-Vakrangee-Bharatpur V&P IKRAN, SEWAR  BHARATPUR   9261404868  Active  20-02-2015    0.00 
623 1417 Pavan Kumar 2014-Vakrangee-Bharatpur RANG REG GALI, RUDAWAL  RUPBAS, BHARATPUR undefined  8505083434  25  Active  20-02-2015    7718.63 
624 1441 Deshraj Saini 2014-Vakrangee-Bharatpur NEAR RAM MANDIR, KHERLI ROAD  NAGAR, BHARATPUR undefined  7891390330  15  Active  02-03-2015    583.51  1047.00 
625 1448 Mahendra Singh 2014-Vakrangee-Bharatpur VPO-HATEEJAR TEH WEIR DIST BHARATPUR    9414654341  23  Active  11-03-2015    2163.6  3127.13 
626 1462 Manoj Kumar 2014-Vakrangee-Bharatpur Pingora, Nadbai  Bharatpur   9166679417  1000  Active  17-03-2015    2244.7  4670.00 
627 1517 CSC Sinsini 2014-Vakrangee-Bharatpur Village - Sinsini Block - Deeg,GP -Sinsini Tehsil - Deeg  8107369741   502  Active  26-03-2015    .15  7161.24 
628 1518 CSC Bahaj 2014-Vakrangee-Bharatpur Village - Bahaj block - Deeg,GP-Bahaj Tehsil - Deeg  9783105695  2028  Active  26-03-2015    .19  1394.43 
629 1519 CSC Hantra 2014-Vakrangee-Bharatpur Village - Hantra Block - Nadbai, GP -Hantra Tehsil - Nadbai  9887241930  1221  Active  26-03-2015    602.6  25116.44 
630 1520 CSC Rudawal 2014-Vakrangee-Bharatpur Village - Rudawal Block - Rupbas,GP -Rudawal Tehsil - Rupbas  05645274384  1829  Active  26-03-2015    .2  24503.59 
631 1521 CSC Uchchain 2014-Vakrangee-Bharatpur Village - Uchchain Block - Rupbas,GP -Uchchen Tehsil - Rupbas  8058231977  1885  Active  26-03-2015    26.1  727.53 
632 1522 CSC Chiksana 2014-Vakrangee-Bharatpur Village - Chiksana Block - Sewar,GP -Chiksana Tehsil -Bharatpur  9828294579  755  Active  26-03-2015    5000.56  3933.42 
633 1523 CSC Nithar 2014-Vakrangee-Bharatpur Village - Nithar Block - Weir,GP -Nithar Tehsil - Weir  9829173114  120  Active  26-03-2015    91.22  2441.44 
634 1524 CSC Kamalpura 2014-Vakrangee-Bharatpur Village - Kamalpura Block - Weir,GP -Kamalpura Tehsil - Weir  9785203822  366  Active  26-03-2015    2803.4  9125.16 
635 1525 CSC Moloni 2014-Vakrangee-Bharatpur Village - Moloni Block - Weir,GP -Moloni Tehsil - Weir  7568357181  1879  Active  26-03-2015    120.43  14233.64 
636 1526 CSC Bajhera Kalan 2014-Vakrangee-Bharatpur Village - Bajhera Kalan Block - Weir,GP- Bjera Kalan Tehsil - Bharatpur  9460324222  210  Active  26-03-2015    283.78  266.96 
637 1527 CSC Deewali 2014-Vakrangee-Bharatpur Village - Deewali Block -Weir,GP -Divli Tehsil - Weir  7742053693  702  Active  26-03-2015    7.44  1510.77 
638 1528 CSC Halena 2014-Vakrangee-Bharatpur Village - Halena Block - Weir,GP -Halena Tehsil - Weir  9928134310  2385  Active  26-03-2015    76.47  5501.83 
639 1529 CSC Rupbas 2014-Vakrangee-Bharatpur Village - Rupbas Block - Rupbas,GP -Rupbas Tehsil - Rupbas  05645-273027  104  Active  26-03-2015    .4  19313.70 
640 1530 CSC Chhokarwara Kalan 2014-Vakrangee-Bharatpur Village - Chhokarwara Kalan Block - Weir Bharatpur  9785358031  458  Active  26-03-2015    .52  40988.71 
641 1531 CSC Mai 2014-Vakrangee-Bharatpur Village - Mai  Block - Nadbai Bharatpur  9783015108  6637  Active  26-03-2015    2185.02  7247.56 
642 1532 CSC barauli Chhar 2014-Vakrangee-Bharatpur Village-Barauli Chhar Block-Nadbai Bharatpur  9660985921  535  Active  26-03-2015    .13  9409.68 
643 1534 CSC pahari 2014-Vakrangee-Bharatpur Village-Pahari Block-Nagar Bharatpur  8890198658  1411  Active  26-03-2015    23.68  3349.01 
644 1536 CSC ludhabai 2014-Vakrangee-Bharatpur Village-Ludhabai Block-Sewar Bharatpur  9166767525  293  Active  26-03-2015    362.42  1046.46 
645 1539 CSC Kanawar 2014-Vakrangee-Bharatpur Village - Kanawar Block - Bayana Bharatpur  9828300711  1653  Active  26-03-2015    597.3  5169.39 
646 1540 CSC Janoothar 2014-Vakrangee-Bharatpur Village-Janoothar Block-Deeg Bharatpur  8104440387  Active  26-03-2015    2195.25  9911.38 
647 1542 CSC Bahnera 2014-Vakrangee-Bharatpur Village-Bahnera Block-Sewar Bharatpur  8561985295  1920  Active  26-03-2015    6729.4  3362.00 
648 1545 CSC Seedpur 2014-Vakrangee-Bharatpur Village - Seedpur Block - Bayana Bharatpur  9799081802  65  Active  26-03-2015    .35  14069.68 
649 1547 CSC Sikrori 2014-Vakrangee-Bharatpur Village - Sikrori Block - Kumher Bharatpur  05644240006  1575  Active  26-03-2015    .99  26148.97 
650 1550 CSC Gulpara 2014-Vakrangee-Bharatpur Village - Gulpara Block - Nagar,GP -Gulpada Tehsil - Nagar  9649498388  244  Active  26-03-2015    2000.61  22245.50 
651 1551 Csc Khera Thakur 2014-Vakrangee-Bharatpur Village-Khera Thakur Block-Rupbas District-Bharatpur   8824365595  807  Active  26-03-2015    920.18  80.07 
652 1552 Csc Sarsaina 2014-Vakrangee-Bharatpur Village-Sarsaina Block-Weir District-Bharatpur  9636305014  1207  Active  26-03-2015    1500  20391.26 
653 1553 Csc Bhatpura 2014-Vakrangee-Bharatpur Village-Bhatpura Block-Nagar District-Bharatpur  9672172461  1940  Active  26-03-2015    1676.48  6326.06 
654 1555 Csc Seekri Chak No 1 2014-Vakrangee-Bharatpur Village-Seekri Chak No.1 Block-Nagar District-Bharatpur  9950750001  1026  Active  26-03-2015    2700.53  1954.53 
655 1556 CSC Palka 2014-Vakrangee-Bharatpur Village - Palka Block - Nagar,GP -Palka Tehsil - Nagar  9828229302  385  Active  26-03-2015    2091.83  12839.47 
656 1557 CSC Shyorawali 2014-Vakrangee-Bharatpur Village - Shyorawali Block - Deeg,GP -Shyorawali Tehsil - Deeg  9887037190  92  Active  26-03-2015    105.27  1860.48 
657 1558 CSC Bedham 2014-Vakrangee-Bharatpur Village - Dedham Block - Deeg,GP - Baidam Tehsil - Deeg  9887050988  803  Active  26-03-2015    3571.15  7478.63 
658 1560 CSC Samogar 2014-Vakrangee-Bharatpur ATAL SEVA KENDRA SAMOGAR,  TEH-BAYANA, DISTRICT- BHARATPUR   9001282130  43  Active  26-03-2015    .13  715.56 
659 1561 CSC Ubar 2014-Vakrangee-Bharatpur Village- Ubar Block- Kumher District- Bharatpur  9782276183   405  Active  26-03-2015    1635.28  14377.78 
660 1563 CSC Seekri Chak No 2 2014-Vakrangee-Bharatpur Village- Seekri Chak No 2 Block- Nagar District- Bharatpur  9413994113  7884  Active  26-03-2015    .86  60326.38 
661 1564 CSC Berroo 2014-Vakrangee-Bharatpur Village- Berroo Block- Nagar District- Bharatpur  9983740637  463  Active  26-03-2015    520.79  7325.45 
662 1565 CSC Shahna 2014-Vakrangee-Bharatpur Village - Shahna Block - Rupbas,GP -Sahna Tehsil - Rupbas  8058592215  1001  Active  26-03-2015    3929.03  6952.17 
663 1571 CSC Dehgawan 2014-Vakrangee-Bharatpur Village- Dehgawan  Block- Bayana  District- Bharatpur  05648223013  613  Active  26-03-2015    25.06  3752.26 
664 1572 CSC Paramdara 2014-Vakrangee-Bharatpur Village- Paramadara Block- Deeg District- Bharatpur  9413227228  1210  Active  26-03-2015    3509.48  6264.24 
665 1575 CSC Baroli Chauth 2014-Vakrangee-Bharatpur Village- Baroli Chauth  Block- Deeg  District- Bharatpur  9950866507  1385  Active  26-03-2015    502.21  2894.16 
666 1577 CSC Satwas 2014-Vakrangee-Bharatpur Village- Satwas  Block- Kaman  District- Bharatpur   9982321410  29  Active  26-03-2015    841.24  273.68 
667 1578 CSC Moonsepur 2014-Vakrangee-Bharatpur Village- Moonsepur  Block- Kaman  District- Bharatpur   9875168525  Active  26-03-2015    230.56  2917.70 
668 1579 CSC Jurhara 2014-Vakrangee-Bharatpur Village- Jurhara  Block- Kaman  District- Bharatpur  9413878652  2277  Active  26-03-2015    .26  1800.60 
669 1580 CSC Sablana 2014-Vakrangee-Bharatpur Village- Sablana  Block- Kaman  District- Bharatpur  9413193034  782  Active  26-03-2015    4.74  117.31 
670 1581 CSC Kathaul 2014-Vakrangee-Bharatpur Village- Kathaul  Block- Kaman  District- Bharatpur   9509535906  37  Active  26-03-2015    480.74  236.82 
671 1582 CSC Birharu 2014-Vakrangee-Bharatpur Village- Birharu  Block- Kumher  District- Bharatpur  9785037811  18  Active  26-03-2015    .68  2362.90 
672 1583 CSC Belara Kalan 2014-Vakrangee-Bharatpur Village- Belara Kalan  Block- Kumher  District- Bharatpur  8058521191  51  Active  26-03-2015    .5  5071.96 
673 1584 CSC Lakhan 2014-Vakrangee-Bharatpur Village- Lakhan  Block- Kumher  District- Bharatpur  9602406517  2230  Active  26-03-2015    2715.67  5980.60 
674 1585 CSC Borai 2014-Vakrangee-Bharatpur Village- Borai  Block- Kumher  District- Bharatpur   9694199137  13  Active  26-03-2015    78.01  4386.44 
675 1586 CSC Kurka 2014-Vakrangee-Bharatpur Village- Kurka  Block- Rupbas  District- Bharatpur  9783284432  52  Active  26-03-2015    4.65  4220.73 
676 1587 CSC Malah 2014-Vakrangee-Bharatpur Village- Malah  Block- Sewar  District- Bharatpur   9001668134  622  Active  26-03-2015    2893.17  4739.03 
677 1591 CSC KORER 2014-Vakrangee-Bharatpur Village KORER  Block DEEG  District BHARATPUR   9783156574  1365  Active  26-03-2015    2428.54  6805.42 
678 1593 CSC Ajau 2014-Vakrangee-Bharatpur Village Ajau  Block KUMHER   District BHARATPUR   9286557605  Active  26-03-2015    33.07  0.00 
679 1594 CSC Barauli Ran 2014-Vakrangee-Bharatpur Village Barauli Ran  Block NADBAI  District BHARATPUR   9252730750  Active  26-03-2015    241.82  0.00 
680 1596 CSC Shakkarpur 2014-Vakrangee-Bharatpur Village Shakkarpur  Block RUPBAS  District BHARATPUR   9462355422  995  Active  26-03-2015    2881.63  9839.83 
681 1597 CSC Khudasa 2014-Vakrangee-Bharatpur Village Khudasa  Block RUPBAS  District BHARATPUR   9784375183  340  Active  26-03-2015    240.07  1426.85 
682 1600 CSC Siras 2014-Vakrangee-Bharatpur Village Siras   Block WEIR  District BHARATPUR   9460877014  Active  26-03-2015    5838.91  12922.04 
683 1601 CSC Bhaiseena 2014-Vakrangee-Bharatpur Village Bhaiseena  Block WEIR  District BHARATPUR   9214944095  1042  Active  26-03-2015    .34  28799.35 
684 1602 CSC Samraya 2014-Vakrangee-Bharatpur Village Samraya  Block WEIR  District BHARATPUR   9667808828  2650  Active  26-03-2015    261.92  8144.85 
685 1604 CSC HATAURI 2014-Vakrangee-Bharatpur Village HATAURI   Block WEIR   District BHARATPUR   000000000000  658  Active  26-03-2015    76.06  16018.47 
686 1606 CSC Barah Mafi 2014-Vakrangee-Bharatpur Village - Barah Mafi Block - Rupbas GP - Barah Mafi  9680805312  495  Active  26-03-2015    1551.32  2036.85 
687 1608 CSC PALLA 2014-Vakrangee-Bharatpur Village Palla   Block KAMAN  District BHARATPUR   9982877995  Active  26-03-2015    18  12.00 
688 1609 CSC Sahsan 2014-Vakrangee-Bharatpur Village Sahsan  Block KAMAN  District BHARATPUR   96101000045  620  Active  26-03-2015    1725.22  9931.71 
689 1610 CSC Pichoomar 2014-Vakrangee-Bharatpur Village Pichoomar  Block KUMHER  District BHARATPUR   7737100184  2385  Active  26-03-2015    .97  293.09 
690 1611 CSC Peepal Khera 2014-Vakrangee-Bharatpur Village Peepal Khera  Block NAGAR  District BHARATPUR   9772404014  67  Active  26-03-2015    1060.1  5892.61 
691 1614 CSC Aghapur 2014-Vakrangee-Bharatpur Village Aghapur  Block SEWAR  District BHARATPUR   9549249946  8690  Active  26-03-2015    65.69  12152.72 
692 1615 CSC Moondota 2014-Vakrangee-Bharatpur Village MOONDOTA   Block SEWAR   District BHARATPUR   9887482598  800  Active  26-03-2015    4851.5  5866.35 
693 1616 CSC Jahanpur 2014-Vakrangee-Bharatpur Village- Jahanpur Block- Weir  District- Bharatpur   9694265999  407  Active  26-03-2015    4769.88  8703.66 
694 1618 CSC Samai 2014-Vakrangee-Bharatpur Village Samai  Block DEEG  District BHARATPUR   9509535226  700  Active  26-03-2015    4400.91  9863.75 
695 1620 CSC Pai 2014-Vakrangee-Bharatpur Village Pai  Block KAMAN  District BHARATPUR   9413309008  27  Active  26-03-2015    163.4  3679.47 
696 1622 CSC Gopalgarh 2014-Vakrangee-Bharatpur Village Gopalgarh  Block NAGAR  District BHARATPUR   9983757532  19  Active  26-03-2015    490.42  11426.09 
697 1624 CSC Dahina Gaon 2014-Vakrangee-Bharatpur Village Dahina Gaon  Block RUPBAS  District BHARATPUR   9983650149  1871  Active  26-03-2015    .66  9593.68 
698 1626 CSC Sanwler 2014-Vakrangee-Bharatpur Village- Sanwler Block- Kaman  District- Bharatpur  9982052204  480  Active  26-03-2015    14.16  1448.12 
699 1627 CSC Bilang 2014-Vakrangee-Bharatpur Village- Bilang Block- Kaman  District- Bharatpur  8504075123  158  Active  26-03-2015    .35  160.53 
700 1628 CSC Koomha (Khumer) 2014-Vakrangee-Bharatpur Village- Koomha  Block- Kumher  District- Bharatpur  9887438336  259  Active  26-03-2015    435.78  3504.08 
701 1629 CSC Bachhamadi 2014-Vakrangee-Bharatpur Village- Bachhamadi Block- Nadbai District- Bharatpur  9680669629  599  Active  26-03-2015    .01  1383.13 
702 1631 CSC Taraudar 2014-Vakrangee-Bharatpur Village- Taraudar  Block- Nagar District- Bharatpur  9783527827  47  Active  26-03-2015    4551.33  27576.30 
703 1632 CSC Tuhiya 2014-Vakrangee-Bharatpur Village- Tuhiya  Block- Sewar  District- Bharatpur  9887934359  2936  Active  26-03-2015    1049.06  16818.66 
704 1633 CSC Naroli 2014-Vakrangee-Bharatpur Village- Naroli Block- Bayana  District- Bharatpur  9799726525  441  Active  26-03-2015    .72  2780.74 
705 1635 CSC Khanuan 2014-Vakrangee-Bharatpur Village - khanuan Block - Rupbas  Bharatpur  9887173371  11924  Active  26-03-2015    .82  29196.13 
706 1636 CSC Atari 2014-Vakrangee-Bharatpur Village- Atari Block- Nadbai District- Bharatpur  9462354741  41  Active  26-03-2015    .54  18054.22 
707 1637 CSC Iklahra 2014-Vakrangee-Bharatpur Village- Iklahra  Block- Deeg District- Bharatpur  8104501026  10  Active  26-03-2015    136.35  0.00 
708 1638 CSC Karhi 2014-Vakrangee-Bharatpur Village- Karhi Block- Nadbai District- Bharatpur  9950324526  2338  Active  26-03-2015    .55  8808.69 
709 1644 CSC Chhichharwari 2014-Vakrangee-Bharatpur Village- Chhichharwari Block- Kaman  District- Bharatpur  9828523499  305  Active  26-03-2015    1357.76  5775.80 
710 1647 CSC Nyotha 2014-Vakrangee-Bharatpur Village- Nyotha  Block- Nadbai District- Bharatpur  05643275505  83  Active  26-03-2015    931.13  737.00 
711 1649 CSC Kheri Devisingh 2014-Vakrangee-Bharatpur Village- Kheri Devisingh  Block- Nadbai  District- Bharatpur  9887395295  907  Active  26-03-2015    1341.18  4651.36 
712 1650 CSC Piprau 2014-Vakrangee-Bharatpur Village- Piprau Block- Nadbai District- Bharatpur  8442076861  12  Active  26-03-2015    29.89  557.59 
713 1654 CSC Undra 2014-Vakrangee-Bharatpur Village- Undra  Block- Sewar  District- Bharatpur  7742257001  14  Active  26-03-2015    358.45  515.08 
714 1655 CSC Bachhren 2014-Vakrangee-Bharatpur Village- Bachhren  Block- Weir  District- Bharatpur  9887161719  Active  26-03-2015    18  12.00 
715 1656 CSC Lakhanpur (Weir) 2014-Vakrangee-Bharatpur Village- Lakhanpur Block- Weir  District- Bharatpur  9782635066  415  Active  26-03-2015    2508.83  5252.00 
716 1657 CSC Moodiya Laleeta 2014-Vakrangee-Bharatpur Village- Moodiya Laleeta Block- Weir  District- Bharatpur  9414758409  272  Active  26-03-2015    .63  11972.63 
717 1660 CSC Jatmasi 2014-Vakrangee-Bharatpur Village JATMASI  Block RUPBAS  District BHARATPUR   8058932026  695  Active  26-03-2015    2606.34  20649.37 
718 1661 CSC Ajan 2014-Vakrangee-Bharatpur Village Ajan  Block KUMHER  District BHARATPUR   9887687712  209  Active  26-03-2015    .56  3654.57 
719 1663 CSC Bhatawali 2014-Vakrangee-Bharatpur Village BHATAWALI  Block KUMHER  District BHARATPUR   9530446606  518  Active  26-03-2015    1022.6  1957.32 
720 1666 CSC Barauli Dhau 2014-Vakrangee-Bharatpur Village- Barauli Dhau Block- Kaman District- Bharatpur  9636033448  47  Active  26-03-2015    .09  5278.50 
721 1670 CSC Badri 2014-Vakrangee-Bharatpur Village BADRI  Block DEEG  District BHARATPUR   9875298827  885  Active  26-03-2015    3.06  3785.54 
722 1672 CSC Bilond 2014-Vakrangee-Bharatpur Village BILOND  Block KAMAN  District BHARATPUR   9875114960  12  Active  26-03-2015    .69  51.00 
723 1674 CSC Saumka 2014-Vakrangee-Bharatpur Village SAUMKA  Block KAMAN  District BHARATPUR   9982877995  15  Active  26-03-2015    94.28  156.00 
724 1676 CSC Noharda 2014-Vakrangee-Bharatpur Village NOHARDA  Block RUPBAS  District BHARATPUR   9413510642  186  Active  26-03-2015    1.71  283.07 
725 1677 CSC PHULWARA 2014-Vakrangee-Bharatpur Village PHULWARA  Block SEWAR  District BHARATPUR   05644220663  340  Active  26-03-2015    .95  2019.74 
726 1679 CSC BRAHMAWAD 2014-Vakrangee-Bharatpur Village BRAHMAWAD  Block BAYANA  District BHARATPUR   05648232035  997  Active  26-03-2015    .34  1812.74 
727 1681 CSC Sooti 2014-Vakrangee-Bharatpur Village SOOTI  Block SEWAR  District BHARATPUR   8094749430  97  Active  26-03-2015    72.46  156.00 
728 1682 CSC Jagheena (Rural) 2014-Vakrangee-Bharatpur Village- Jagheena (Rural) Block- Sewar  District- Bharatpur  9782633090  339  Active  26-03-2015    .78  3105.85 
729 1683 CSC Naunera 2014-Vakrangee-Bharatpur Village Naunera  Block KAMAN  District BHARATPUR   9782528569  329  Active  26-03-2015    26.9  3108.72 
730 1684 CSC Udaka 2014-Vakrangee-Bharatpur Village Udaka  Block KAMAN  District BHARATPUR   9887770292  108  Active  26-03-2015    1.09  208.53 
731 1685 CSC Helak 2014-Vakrangee-Bharatpur Village Helak  Block KUMHER  District BHARATPUR   9414889065  240  Active  26-03-2015    2.34  3644.13 
732 1686 CSC RANDHEERGARH 2014-Vakrangee-Bharatpur Village RANDHEERGARH  Block WEIR  District BHARATPUR   9828356625  4990  Active  26-03-2015    2968.09  22342.00 
733 1688 CSC Khan Surjapura 2014-Vakrangee-Bharatpur village khan surjapura block rupbas District bharatpur  9929935890  2387  Active  26-03-2015    1001.16  16597.68 
734 1689 CSC Ghatri 2014-Vakrangee-Bharatpur Village Ghatri Block Weir District Bharatpur  000000000000  228  Active  26-03-2015    254.08  19521.34 
735 1690 CSC Vaulkhera 2014-Vakrangee-Bharatpur Village Vaulkhera  Block KAMAN  District BHARATPUR   9928280228  Active  26-03-2015    .73  4907.64 
736 1693 CSC Sundrawali 2014-Vakrangee-Bharatpur Village- Sundrawali Block- Nagar  District- Bharatpur  9261767670  78  Active  26-03-2015    .3  3092.42 
737 1695 CSC Maharawar 2014-Vakrangee-Bharatpur Village- Maharawar  Block- Kumher  District- Bharatpur  9694984093  1000  Active  26-03-2015    627.04  0.00 
738 1696 CSC Pahua 2014-Vakrangee-Bharatpur Village- Pahua  Block- Kumher  District- Bharatpur  9784058944  42  Active  26-03-2015    600.09  3090.89 
739 1697 CSC Kakrala 2014-Vakrangee-Bharatpur Village- Kakrala Block- Nagar District- Bharatpur  9828672146  267  Active  26-03-2015    46.02  52075.27 
740 1698 CSC Dawak 2014-Vakrangee-Bharatpur Village- Dawak Block- Nagar District- Bharatpur  9610562668  2124  Active  26-03-2015    3488.94  9908.84 
741 1700 CSC Andhiyari 2014-Vakrangee-Bharatpur Village- Andhiyari Block- Rupbas District- Bharatpur  9950324410  3723  Active  26-03-2015    68.84  4875.42 
742 1701 CSC Bhawanpura 2014-Vakrangee-Bharatpur Village- Bhawanpura Block- Rupbas District- Bharatpur  9828223330  Active  26-03-2015    362.77  337.68 
743 1703 CSC Madhoni 2014-Vakrangee-Bharatpur Village- Madhoni Block- Sewar District- Bharatpur  9414895963  115  Active  26-03-2015    1001.02  26.00 
744 1705 CSC Santrook 2014-Vakrangee-Bharatpur Village- Santrook Block- Kumher District- Bharatpur  272213  397  Active  26-03-2015    794.58  775.00 
745 1706 CSC Therawar 2014-Vakrangee-Bharatpur Village- Therawar Block- Kumher District- Bharatpur  05641231528  17  Active  26-03-2015    .4  1447.89 
746 1707 CSC Ranph 2014-Vakrangee-Bharatpur Village- Ranph Block- Nagar District- Bharatpur  7891634369  875  Active  26-03-2015    9105.72  35346.52 
747 1710 CSC Nabhera 2014-Vakrangee-Bharatpur Village- Nabhera Block- Rupbas District- Bharatpur  9694147825  3334  Active  26-03-2015    1967.93  14880.80 
748 1711 CSC Padalwas 2014-Vakrangee-Bharatpur Village- Padalwas Block- Nagar District- Bharatpur  9982320886  2287  Active  26-03-2015    207.5  8567.05 
749 1717 CSC Khareri 2014-Vakrangee-Bharatpur Village Khareri  Block BAYANA  District BHARATPUR   7891635380  Active  26-03-2015    1956.51  12.00 
750 1721 CSC Bodoli 2014-Vakrangee-Bharatpur Village- Bodoli Block- Nagar  District- Bharatpur  9587774983  51  Active  26-03-2015    68.79  2609.00 
751 1723 CSC Kasot_WRS 2014-Vakrangee-Bharatpur Village- Kasot Block- Deeg District- Bharatpur  9950306770  974  Active  26-03-2015    513.17  2310.79 
752 1724 CSC Maloni_WRS 2014-Vakrangee-Bharatpur Village- Maloni Block- Rupbas District- Bharatpur  9667063033  650  Active  26-03-2015    7.88  2341.09 
753 1726 CSC Khangri_WRS 2014-Vakrangee-Bharatpur Village- Khangri Block- Nadbai District- Bharatpur  9784436739  246  Active  26-03-2015    1877.81  555.32 
754 1729 CSC Daulatgarh 2014-Vakrangee-Bharatpur Village- Daulatgarh Block- Rupbas District- Bharatpur  8058253021  227  Active  26-03-2015    4533.14  12652.29 
755 1731 CSC Uchchain 2014-Vakrangee-Bharatpur Village - Uchchain Block - Rupbas Dist. - Bharatpur  9928892871  203  Active  26-03-2015    407.63  13498.35 
756 1732 CSC Paharpur 2014-Vakrangee-Bharatpur Village - Paharpur Block - Rupbas Dist. - Bharatpur  9610374499  460  Active  26-03-2015    .11  15374.49 
757 1733 CSC Rundh Rupbas 2014-Vakrangee-Bharatpur Village - Rundh Rupbas Block - Rupbas Dist. - Bharatpur  0000000  127  Active  26-03-2015    4915.5  698.46 
758 1734 CSC Rupbas_WRS 2014-Vakrangee-Bharatpur Village - Rupbas Block - Rupbas Dist. - Bharatpur  05645273051  490  Active  26-03-2015    1.45  3570.84 
759 1735 CSC Rudawal 2014-Vakrangee-Bharatpur Vilage - Rudawal Block - Rupbas Dist. - Bharatpur  9610023242  345  Active  26-03-2015    1450.03  2544.88 
760 1737 CSC NAWLI 2014-Vakrangee-Bharatpur Village-NAWLI BLOCK -BAYANA DIS- BHARATPUR  9001558722  69  Active  26-03-2015    829.41  351.01 
761 1738 CSC KUCHAWATI 2014-Vakrangee-Bharatpur Village-KUCHAWATI BLOCK -DEEG DIS- BHARATPUR  9875144247  164  Active  26-03-2015    138.65  1031.13 
762 1740 CSC BAMANWARI 2014-Vakrangee-Bharatpur Village-BAMANWARI BLOCK -KAMAN DIS- BHARATPUR  9785707577  171  Active  26-03-2015    .93  19751.36 
763 1741 CSC GHATMEEKA 2014-Vakrangee-Bharatpur Village-GHATMEEKA BLOCK -KAMAN DIS- BHARATPUR  8094797171  2553  Active  26-03-2015    .24  21529.06 
764 1742 CSC PIPRAU 2014-Vakrangee-Bharatpur Village-PIPRAU BLOCK -NADBAI DIS- BHARATPUR  9166662311  718  Active  26-03-2015    1846.35  3507.38 
765 1743 CSC LAKHANPUR 2014-Vakrangee-Bharatpur Village-LAKHANPUR BLOCK -NADBAI DIS- BHARATPUR  9414214046  701  Active  26-03-2015    5031.82  14124.66 
766 1745 CSC IBRAHIMPUR 2014-Vakrangee-Bharatpur Village-IBRAHIMPUR BLOCK -RUPBAS DIS- BHARATPUR  9772543150  70  Active  26-03-2015    322.38  335.05 
767 1746 CSC BANSI KUURD 2014-Vakrangee-Bharatpur Village-BANSI KUURD BLOCK -SEWAR DIS- BHARATPUR  9875008565  30  Active  26-03-2015    1596.98  1978.00 
768 1747 CSC PATHENA 2014-Vakrangee-Bharatpur Village-PATHENA BLOCK -WEIR DIS- BHARATPUR  9461247513  2691  Active  26-03-2015    1994.27  2280.72 
769 1749 JSS Infotech emitra center 2014-Vakrangee-Bharatpur Near SRS College  Block Kumher  Bharatpur  9950192400  235  Active  26-03-2015    500.77  5695.42 
770 1750 Kuldeep Emitra Center 2014-Vakrangee-Bharatpur Infront of Zila Parishad Shop No. 1 Krishana Nagar Bharatpur  9887149141  18629  Active  26-03-2015    70.09  1009.81 
771 1751 Tamanna Emitra Center 2014-Vakrangee-Bharatpur Shop No. 15 Collectrate Campus Near S.B.B.J Collectrate Branch Bharatpur  000000000  11927  Active  26-03-2015    575.53  8710.47 
772 1752 Anuj eMitra 2014-Vakrangee-Bharatpur 82, Ekta Vihar Colony Sunkh Road Bharatpur  000000000  1386  Active  26-03-2015    77.71  230.51 
773 1754 City eMitra Center 2014-Vakrangee-Bharatpur Near Siki Wale Hanuman Mandir Mandi Alal Bandh  Bharatpur  05644220341  284  Active  26-03-2015    79.61  30612.85 
774 1755 Rakesh eMitra Center 2014-Vakrangee-Bharatpur Shop No-1 Near Panchayat Samiti Blcok-Nadbai Bharatpur  05643275050  7480  Active  26-03-2015    .16  23436.85 
775 1756 Anil Emitra 2014-Vakrangee-Bharatpur Jain Book Depot Block Bayana District- Bharatpur   05648225200  67  Active  26-03-2015    155.47  128.43 
776 1757 Gaurav eMitra 2014-Vakrangee-Bharatpur Koli Pada Caabkari Mohalla NAi Sadak Deeg Bharatpur  9414715893  2689  Active  26-03-2015    1247.07  402.01 
777 1758 Sony eMitra Center 2014-Vakrangee-Bharatpur Near Jageshwar Mandir Kumher Bharatpur   9024728351  215  Active  26-03-2015    50.72  644.14 
778 1759 Balaji emitra Center Nadbai 2014-Vakrangee-Bharatpur Balaji Printing Press  Nagar Road Nadbai  05643275022  1075  Active  26-03-2015    .59  4795.83 
779 1760 Shri Radhey Mohan eMitra Center 2014-Vakrangee-Bharatpur Natani Mohalla Deeg Bharatpur  9887905192  897  Active  26-03-2015    708.25  5505.82 
780 1761 Dakshita eMitra Center 2014-Vakrangee-Bharatpur Infront of Mohanji Mandir Budh ki Haat Bharatpur  9413916336  3132  Active  26-03-2015    .68  127.58 
781 1837 Ramraj 2014-Vakrangee-Bharatpur Atal Seva kendra ,shahpur    9694578955  Active  13-04-2015    0.00 
782 1838 Mevaram 2014-Vakrangee-Bharatpur atal Seva kendra kapura, malooka    8290695834  Active  13-04-2015    4.61  115.86 
783 1839 Bhagwan Das Gurjar 2014-Vakrangee-Bharatpur Atal Kendra Thana Dang,Bayana Bharatpur   9887387580  2580  Active  13-04-2015    1787.37  76.00 
784 1842 Laxmi Narayan Gaur 2014-Vakrangee-Bharatpur Atal Seva Kendra Ghosinga Kaman Bharatpur    9982906461  100  Active  13-04-2015    64.7  8021.73 
785 1843 Narendra Kumar 2014-Vakrangee-Bharatpur Atal Seva Kendra Vpo Uadki Dalla Nagar Bharatpur    8502921843  92  Active  13-04-2015    3115.98  12593.96 
786 1844 Sanjay Kumar 2014-Vakrangee-Bharatpur Atal Seva Kendra Dayana Ka Bass Khohri Nagar Bharatpur       Active  13-04-2015    4833  9521.00 
787 1848 Radhey Shyam 2014-Vakrangee-Bharatpur Atal Seva Kendra Palidang,Bayana Bharatpur   7568173398  104  Active  13-04-2015    22.45  128.00 
788 1880 Chandra Shekhar 2014-Vakrangee-Bharatpur Vill- madapura,rupbas bharatpur   9694325981  916  Active  16-04-2015    15.8  7019.30 
789 1881 Anil Kumar 2014-Vakrangee-Bharatpur Vill- Fatehpur,Rupbas bharatpur   9460291176  17  Active  16-04-2015    469.95  2446.38 
790 1882 Ravindra Singh 2014-Vakrangee-Bharatpur Vill- Vinaua,Rupbas Bharatpur   9602931193  470  Active  16-04-2015    467.84  1.58 
791 1884 Santosh Kumar 2014-Vakrangee-Bharatpur VPO-Akhaigarh the-nadbai dist-bharatpur    9887472471  1475  Active  16-04-2015    3594.46  13663.56 
792 1885 Ram Sahay 2014-Vakrangee-Bharatpur VPO-Nayabas the-nadbai dist-bharatpur    9785190846  665  Active  16-04-2015    922.26  4296.23 
793 1890 Rajneesh 2014-Vakrangee-Bharatpur Vill-Ajit nagar post-Dharsoni the-weir dist-bharatpur    9828571484  1376  Active  16-04-2015    .35  5809.27 
794 1892 Vishnu Kumar 2014-Vakrangee-Bharatpur Vill- chulera, Tehsil - Deeg    9887691796  71  Active  16-04-2015    99.61  1902.44 
795 1896 Ghanshyam Singh 2014-Vakrangee-Bharatpur Near Petrol Pump    9982183871  29  Active  16-04-2015    1242.11  3308.70 
796 1897 Jitendra Kumar 2014-Vakrangee-Bharatpur Dumriya,Roopbas Bharatpur   9928208514  41  Active  16-04-2015    2669.8  10949.05 
797 1898 Khajan Singh 2014-Vakrangee-Bharatpur Ghata,Aodal Gaddi Rupbas,Bharatpur undefined  8432303126  Active  16-04-2015    26.62  6249.19 
798 1900 Suresh Chand 2014-Vakrangee-Bharatpur VPO Malah Sawer Bharatpur    2086  Active  16-04-2015    371.02  5718.84 
799 1901 Devendra Singh 2014-Vakrangee-Bharatpur VPO-KHATAUTI TEH-NADBAI DIST-BHARATPUR    9785156162  210  Active  16-04-2015    685.67  471.25 
800 1902 Vishnu Kumar 2014-Vakrangee-Bharatpur VPO Chulera Deeg Bharatpur    9549869225  2537  Active  16-04-2015    57.89  4108.62 
801 1903 Devendra Singh 2014-Vakrangee-Bharatpur VPO Pasta Deeg Bharatpur    8058521363  771  Active  16-04-2015    .5  1710.61 
802 1904 Kumar Singh 2014-Vakrangee-Bharatpur VPO Khohri Deeg Bharatpur    9587994507  60  Active  16-04-2015    1003.05  4981.86 
803 1905 Virendra Pal Singh 2014-Vakrangee-Bharatpur VPO Khohri Deeg Bharatpur    7597756933  355  Active  16-04-2015    1092.98  455.03 
804 1906 Pradeep Kumar 2014-Vakrangee-Bharatpur Dhaulet Kaman Bharatpur    9610020647  20250  Active  16-04-2015    .67  39470.53 
805 1907 Rameej Khan 2014-Vakrangee-Bharatpur Kherli Manna Pahari Nagar    9610020647  78  Active  16-04-2015    1081.49  2889.89 
806 1910 Sunil Kumar 2014-Vakrangee-Bharatpur G.P. KHANUA, ROOPBAS BHARATPUR   8441083556  115  Active  16-04-2015    2914  11160.24 
807 1911 Jandail Singh 2014-Vakrangee-Bharatpur G.P. DHANA KHERLI, ROOPBAS  BHARATPUR   9784489724  2000  Active  16-04-2015    36.56  10090.00 
808 1912 Gopal Singh 2014-Vakrangee-Bharatpur VILL-JAHANPUR POST-MOLONI TEH-WEIR DIST-BHARATPUR    9667902928  514  Active  16-04-2015    1875.64  6696.22 
809 1913 Harish Chand 2014-Vakrangee-Bharatpur VPO-KARILI TEH-NADBAI DIST-BHARATPUR RAJ    9828354550  3064  Active  16-04-2015    36.12  25514.60 
810 1914 Sonu Singh 2014-Vakrangee-Bharatpur VPO-RAYSIS TEH-NADBAI DIST-BHARATPUR RAJ     7891285253  181  Active  16-04-2015    1.99  435.21 
811 1915 Sunil Kumar 2014-Vakrangee-Bharatpur VPO-GANGAROLI TEH-NADBAI DIST-BHARATPUR     9929273597  38  Active  16-04-2015    1800.13  2452.14 
812 1916 Jeetendra Singh 2014-Vakrangee-Bharatpur VPO-ENCHERA TEH-NADBAI DIST-BHARATPUR RAJ.    9636948833  1495  Active  16-04-2015    326.56  2505.17 
813 1917 Lalaram Saini 2014-Vakrangee-Bharatpur VPO-AKHAIGARH TEH-NADBAI DIST-BHARATPUR RAJ.321614    8107612481  450  Active  16-04-2015    .47  4186.54 
814 1918 Rambabu 2014-Vakrangee-Bharatpur G.P. SENDHLI, BHUSAWAR  BHARATPUR   9782635464  Active  16-04-2015    208.74  930.00 
815 1919 Ajaharuddeen 2014-Vakrangee-Bharatpur Atal Seva Kendra Teski Nagar Bharatpur    9587911862  310  Active  16-04-2015    522.94  1902.27 
816 1921 Surendra Singh 2014-Vakrangee-Bharatpur Atal Seva Kendra Laleeta Moodiya Weir    8890029242  150  Active  16-04-2015    1158.09  1436.00 
817 1922 Kanhiya Lal 2014-Vakrangee-Bharatpur Atal Sewa Kendra Satwari,Pahari Nagar ,Bharatpur undefined  9694217678  573  Active  16-04-2015    1881.3  7195.26 
818 1941 Mahipal Singh 2014-Vakrangee-Bharatpur VPO Shyourawali Deeg Bharatpur    9828659838  1154  Active  17-04-2015    510.74  5392.93 
819 1943 Saleem 2014-Vakrangee-Bharatpur Village- Ghari Jhil Patti , Kaman    9649747503  241  Active  17-04-2015    184.65  0.00 
820 1960 Kuldeep Singh 2014-Vakrangee-Bharatpur VPO-ALIPUR TEH-WEIR DIST-BHARATPUR RAJ.    9252535610  200  Active  20-04-2015    788.25  2016.00 
821 1961 Subhash Chand 2014-Vakrangee-Bharatpur VPO-NAROLI TEH-WEIR DIST-BHARATPUR RAJ    7891273172  Active  20-04-2015    1329  1759.00 
822 1970 Sahil 2014-Vakrangee-Bharatpur VILL.-LEVDATEH.-KAMANDIST.-BHARATPUR    8302391952  350  Active  24-04-2015    219.44  12492.10 
823 1971 Manuj 2014-Vakrangee-Bharatpur Atal Sewa Kendra Sahsan,Kaman Bharatpur   9982484243  1169  Active  24-04-2015    .81  2187.05 
824 1974 Sukhveer Singh 2014-Vakrangee-Bharatpur BHANDRA, KAMAN  BHARATPUR   9680687275  170  Active  24-04-2015    761.85  2869.17 
825 1980 Laxmi Narayan Gaur 2014-Vakrangee-Bharatpur Ghosingh Kaman Bharatpur    9982906461  Active  27-04-2015    100  0.00 
826 1982 Rajeev 2014-Vakrangee-Bharatpur Bodoli Dahar Nagar Bharatpur    9772131500  14  Active  27-04-2015    6441.94  16985.48 
827 1985 Amajad Khan 2014-Vakrangee-Bharatpur Udki Dalla Nagar Bharatpur    9783421642  1741  Active  27-04-2015    3278.1  16514.63 
828 1987 Preeti Rani 2014-Vakrangee-Bharatpur G.P. SATWAS, KAMAN  BHARATPUR   9571941818  688  Active  27-04-2015    766.4  697.81 
829 1988 Jeetendra Singh 2014-Vakrangee-Bharatpur BARKOLI, UCHCHAIN  ROOPBAS, BHARATPUR undefined  9667424562  698  Active  27-04-2015    .02  2304.54 
830 1989 Satyendra Kumar 2014-Vakrangee-Bharatpur G.P. KHAKHAWALI, NAGAR  BHARATPUR   9785549716  Active  27-04-2015    276  310.00 
831 1991 Jagveer Singh 2014-Vakrangee-Bharatpur Palka,Nagar  Bharatpur   9610077616  362  Active  27-04-2015    1226.21  2331.68 
832 1992 Robin 2014-Vakrangee-Bharatpur Vill-Ladamka,Pahari Nagar,Bharatpur undefined  8769665665  660  Active  27-04-2015    1.33  1962.00 
833 1993 Gopi Kamwar 2014-Vakrangee-Bharatpur Vill. DHANWADA GP.-DHANWADATEH. KUMHERDIST. BHARATPUR    7665903596  1431  Active  27-04-2015    3964.03  8748.39 
834 1994 Tirthendra Kumar 2014-Vakrangee-Bharatpur NEAR OF BIHARI JI TEMPLE, MAHAL KHAS ROAD  KILA, BHARATPUR undefined  9414208420  1908  Active  27-04-2015    2422.33  9461.41 
835 1995 Ravi Kant 2014-Vakrangee-Bharatpur Vill Jhitaredi Nagar Bharatpur    8239735599  59  Active  27-04-2015    1228.99  22473.85 
836 1996 Shailendra Kumar 2014-Vakrangee-Bharatpur Near Panchayat Samati Rupbas    05645273071  1237  Active  27-04-2015    5910.61  25782.05 
837 1997 Jiwaram 2014-Vakrangee-Bharatpur Near Peer Mohalla Kaman    7568394564  1470  Active  27-04-2015    74.28  4679.40 
838 2000 Farram Khan 2014-Vakrangee-Bharatpur OLANDA, KAMAN  BHARATPUR   9929170950  338  Active  27-04-2015    .35  531.00 
839 2001 Ansar Ahmad 2014-Vakrangee-Bharatpur UDAKA, KAMAN  BHARATPUR   9667924143  100  Active  27-04-2015    0.00 
840 2002 Ajam Ali 2014-Vakrangee-Bharatpur MOONSEPUR,KAMAN Bharatpur   9887355386  276  Active  27-04-2015    579.21  1147.42 
841 2004 Govind Singh 2014-Vakrangee-Bharatpur KANWARA, KAMAN  BHARATPUR   9875177264  4571  Active  27-04-2015    2561.1  1440.98 
842 2005 Aneesh 2014-Vakrangee-Bharatpur BHORI, PAHARI  BHARATPUR   9887936012  Active  27-04-2015    13.25  711.12 
843 2006 Janish Khan 2014-Vakrangee-Bharatpur GARHAJAN, KAMAN  BHARATPUR   9413157862  Active  27-04-2015    406.77  487.23 
844 2009 Ramavatar Gurjar 2014-Vakrangee-Bharatpur PALLA, KAMAN  BHARATPUR   9875161441  589  Active  27-04-2015    4888.28  1590.10 
845 2010 Tarif Mohhamad 2014-Vakrangee-Bharatpur Ladlaka,Pahari Bharatpur   8875058404  10  Active  27-04-2015    275.47  6872.47 
846 2011 Anuj Kumar 2014-Vakrangee-Bharatpur ATAL SEVA KENDRA, AOU  DEEG, BHARATPUR undefined  9828638957  751  Active  27-04-2015    1029.5  2079.81 
847 2013 Devi Singh 2014-Vakrangee-Bharatpur RUNDH IKRAN, SEWAR  BHARATPUR   05644200314  140  Active  27-04-2015    334.45  52.00 
848 2060 Ashok Kumar 2014-Vakrangee-Bharatpur Dayana Ka Bass Khohri Nagar Bharatpur    9783351699  3215  Active  04-05-2015    328.65  17197.59 
849 2062 Gopal Ram Koli 2014-Vakrangee-Bharatpur Near Bus Stand Bhusaware    9887091922  80  Active  04-05-2015    1535.69  13.69 
850 2063 Asu Khan 2014-Vakrangee-Bharatpur Atal Sewa Kendra,Jurhera Kaman,Bharatpur undefined  9828287548  1503  Active  05-05-2015    17.36  1693.92 
851 2064 Pradeep Kumar 2014-Vakrangee-Bharatpur Near Bus Stand,Heera Das Bharatpur   9782824899  642  Active  05-05-2015    86.53  3606.52 
852 2065 Jeetendra Kumar 2014-Vakrangee-Bharatpur Alamshah,Nagar Bharatpur   8824310939  85  Active  05-05-2015    .73  7412.62 
853 2066 Ghanshyam Sharma 2014-Vakrangee-Bharatpur Jurhera,Kaman Bharatpur   9887458200  1545  Active  05-05-2015    .01  20407.68 
854 2067 Jeetendra Singh 2014-Vakrangee-Bharatpur Shahna,Roopwas Bharatpur   7891440920  253  Active  05-05-2015    5015.67  26691.50 
855 2069 Dharmendra Singh 2014-Vakrangee-Bharatpur Bachhrain,Weir Bharatpur   9636979736  979  Active  05-05-2015    .54  4541.00 
856 2074 Suresh Chand 2014-Vakrangee-Bharatpur Near PNB Bank Deeg Bharatpur    9414695077  412  Active  05-05-2015    3000.19  624.03 
857 2076 Deepak Kumar 2014-Vakrangee-Bharatpur INFRONT BIJALI GHAR OFFICE, MAAN SINGH CIRCLE  BHARATPUR   9414268504  13  Active  05-05-2015    .28  5975.11 
858 2080 Sakir Hussain 2014-Vakrangee-Bharatpur VILL.-MOONGASKATEH/BLOCK .-KAMANDIST.-BHARATPUR    9610030300  509  Active  05-05-2015    598.08  4231.23 
859 2085 Satish Chand 2014-Vakrangee-Bharatpur NAGAR PALIKA BAYANA,BAYANA BHARATPUR   9460456748  406  Active  05-05-2015    239.66  8509.85 
860 2107 Chandra Prakash 2014-Vakrangee-Bharatpur Near Vatnary Hospital Infront Of Collectrate Bharatpur    9875008565  555  Active  13-05-2015    2634.76  11816.89 
861 2108 Virendra 2014-Vakrangee-Bharatpur Sirthala,Nagar Bharatpur   8003120878  Active  13-05-2015    588.83  2793.25 
862 2109 Shakrulla Khan 2014-Vakrangee-Bharatpur Jalalpur,Nagar Bharatpur   8890841456  2409  Active  13-05-2015    63.79  17173.36 
863 2110 Abhishek Jain 2014-Vakrangee-Bharatpur Ward No 10,Weir Bharatpur   05643272027  305  Active  13-05-2015    401.37  572.27 
864 2112 Dilip Kumar Mathur 2014-Vakrangee-Bharatpur EXCELL INFOTECH, ATAL BANDH  BHARATPUR   9024636465  1236  Active  14-05-2015    535.4  0.00 
865 2113 Banwari Lal 2014-Vakrangee-Bharatpur NEW BUS STAND WEIR, WEIR  BHARATPUR   05643272903  Active  14-05-2015    61.5  90.00 
866 2115 Jeetendra Singh 2014-Vakrangee-Bharatpur G.P- SOGAR, KUMHER  BHARATPUR   8385919296  322  Active  14-05-2015    1190.88  6485.41 
867 2116 Tahir Mohammad 2014-Vakrangee-Bharatpur V&P- LADMAKA, PAHARI  BHARATPUR   9828554381  869  Active  14-05-2015    958.21  11313.07 
868 2117 Akbar Hussain 2014-Vakrangee-Bharatpur G.P. JOTRI PEEPAL, PAHARI  BHARATPUR   8094740181  Active  14-05-2015    323.32  1047.07 
869 2119 Lala Ram 2014-Vakrangee-Bharatpur Pahari,Nagar Bharatpur   9828116381  199  Active  14-05-2015    557.96  791.07 
870 2121 Ram Lal Yogi 2014-Vakrangee-Bharatpur Atal Sewa Kendra,Mudiya Nagar,Bharatpur undefined  9784028801  126  Active  14-05-2015    110.04  8448.92 
871 2122 Sahoon Khan 2014-Vakrangee-Bharatpur Atal Sewa Kendra Dunawal,Nagar Bharatpur   9166731376  490  Active  14-05-2015    1873.62  8944.39 
872 2124 Prabhu Dayal Sharma 2014-Vakrangee-Bharatpur Atal Sewa Kendra,Gangawak Nagar,Bharatpur undefined  9828574840  820  Active  14-05-2015    1259.42  6409.41 
873 2125 Banti 2014-Vakrangee-Bharatpur Atal Sewa Kendra,Semla Kalan Nagar,Bharatpur undefined  9772722836  578  Active  14-05-2015    .43  18266.10 
874 2126 Ashutosh Soni 2014-Vakrangee-Bharatpur Sarafa Gali,Near Laxman Mandir Bharatpur   8963877343  36  Active  14-05-2015    .03  5863.68 
875 2127 Sandeep Kumar 2014-Vakrangee-Bharatpur Atal Sewa Kendra Dharsoni,Weir Bharatpur   9667356195  129  Active  14-05-2015    1521.92  5757.05 
876 2128 Bhoora Singh 2014-Vakrangee-Bharatpur Atal Sewa Kendra,Santrook Kumher,Bharatpur undefined  7823891881  546  Active  14-05-2015    764.68  1617.46 
877 2141 Kapil Kumar 2014-Vakrangee-Bharatpur Near Govt.Hospital,Jurhera Kaman,Bharatpur undefined  9649753604  Active  18-05-2015    81.05  1766.15 
878 2142 Khalid Hussain 2014-Vakrangee-Bharatpur Kherli Manna,Kaman Bharatpur   9649262885  1002  Active  18-05-2015    922.19  3298.00 
879 2143 Pavan Kumar 2014-Vakrangee-Bharatpur ATAL SEVA KENDRA, COLLACTRATE CAMPUS  BHARATPUR   9252067407  265  Active  18-05-2015    1.08  5735.56 
880 2187 Lakhan Lal 2014-Vakrangee-Bharatpur Village Post Pathena Bhusawar    9694417929  235  Active  29-05-2015    9.5  543.69 
881 2191 Natware Singh 2014-Vakrangee-Bharatpur Atal Seva Kendra Dantloathi Deeg Bharatpur    8104440387  Active  29-05-2015    .48  4026.82 
882 2192 Mahish Singh 2014-Vakrangee-Bharatpur Thok Aeldiya Village Sinsini Deeg Bharatpur    9001454392  421  Active  29-05-2015    240.67  1204.09 
883 2193 Mukhiya Rahul Singh 2014-Vakrangee-Bharatpur Village Gaonri Jurhara Kaman Bharatpur    8058465310  Active  29-05-2015    306.51  2446.18 
884 2194 Mahesh Chand 2014-Vakrangee-Bharatpur Chiksana,Bharatpur    9772870267  Active  29-05-2015    245.64  0.32 
885 2196 Dharmendra Singh 2014-Vakrangee-Bharatpur Roopwas,Bharatpur    9610076382  119  Active  29-05-2015    171.69  1513.76 
886 2198 Nirottam Lal 2014-Vakrangee-Bharatpur Atal Seva Kendra Khohara,Bayana Bharatpur   9887290212  556  Active  29-05-2015    1483.03  1607.73 
887 2199 Lokendra Singh 2014-Vakrangee-Bharatpur Atal Seva Kendra Kherli Khdasiya,Bayana Bharatpur   8426988602  389  Active  29-05-2015    .85  8641.22 
888 2202 Meshpal Singh 2014-Vakrangee-Bharatpur Village Jatmasi Ruobas Bharatpur    9602351399  297  Active  29-05-2015    202.91  138.66 
889 2203 Savitri 2014-Vakrangee-Bharatpur Atal Seva Kendra Kuchawati    9784727929  65  Active  29-05-2015    1165.27  1962.39 
890 2204 Bhim Singh 2014-Vakrangee-Bharatpur Mahamadpura,Bayana Bharatpur   9982322322  Active  29-05-2015    3.57  15403.17 
891 2205 Suresh Chand 2014-Vakrangee-Bharatpur Atal Seva Kendra Beerampura,Bayana Bharatpur   7891896889  1542  Active  29-05-2015    .88  6393.69 
892 2206 Rajkumar 2014-Vakrangee-Bharatpur New Sanatan Dharm Market,Laxman Mandir Bharatpur   8504089564  172  Active  29-05-2015    33.51  0.00 
893 2207 Subhash 2014-Vakrangee-Bharatpur Dayana Ka Bas,Khaohri Nagar,Bharatpur undefined  9983881096  2952  Active  29-05-2015    5.52  35668.70 
894 2208 Hemraj 2014-Vakrangee-Bharatpur Naunera,Kaman Bharatpur   9785406406  Active  29-05-2015    61.53  156.00 
895 2209 Jahira Khan 2014-Vakrangee-Bharatpur Jhantli,Sihawali Nagar,Bharatpur undefined  9610081206  20  Active  29-05-2015    9.24  13525.53 
896 2210 Sonveer Singh 2014-Vakrangee-Bharatpur ATAL SEVA KENDRA, SUNARI  SEWAR, BHARATPUR undefined  9784564061  Active  29-05-2015    14.26  5217.44 
897 2211 Satyendra Singh 2014-Vakrangee-Bharatpur Near Panchayat Samiti Mela Ground Rupbas    9950151650  4199  Active  29-05-2015    853.66  37120.71 
898 2213 Kartar Singh 2014-Vakrangee-Bharatpur Atal Seva Kendra Panhori Deeg Bharatpur    9610341318  Active  29-05-2015    1033.5  1111.00 
899 2215 Kailashee Ram 2014-Vakrangee-Bharatpur Atal Sewa Kendra Madoli,Roopwas Bharatpur   9694385142  724  Active  29-05-2015    395.59  691.25 
900 2218 Bachhu Singh 2014-Vakrangee-Bharatpur Jeewad,Weir Bharatpur   9785835210  1690  Active  29-05-2015    18.09  3408.40 
901 2219 Sushil Goyal 2014-Vakrangee-Bharatpur Jatmasi Road B-24,Roopwas Bharatpur   9001409635  Active  29-05-2015    .85  22126.42 
902 2249 Sanjay Singh Shastri 2014-Vakrangee-Bharatpur Naunera,Kaman Bharatpur   9828101520  334  Active  03-06-2015    1609.82  6130.80 
903 2250 Harish 2014-Vakrangee-Bharatpur Naogaon,Kaman Bharatpur   9950025358  125  Active  04-06-2015    .89  2217.82 
904 2268 Devendra Singh 2014-Vakrangee-Bharatpur Baroli Chhar,Nadbai Bharatpur   8440088543  47  Active  15-06-2015    3209.94  1868.45 
905 2269 Mahendra Kumar 2014-Vakrangee-Bharatpur Mathura Gate,Gulal Kund Bharatpur   9351868666  4674  Active  15-06-2015    94.7  6627.61 
906 2270 Bhoopendra Kumar 2014-Vakrangee-Bharatpur Atal Seva Kendra Pasopa    9166080776  Active  15-06-2015    1461.75  4631.00 
907 2271 Yogesh Kumar 2014-Vakrangee-Bharatpur Near Hospital Janoothar Deeg Bharatpur    8104013819  728  Active  15-06-2015    1.12  6408.00 
908 2272 Ankit Chahar 2014-Vakrangee-Bharatpur Near Manav Bharati School Anah Gate Bharatpur    9782561418  174  Active  15-06-2015    655.59  1982.50 
909 2273 Nirbhay Singh 2014-Vakrangee-Bharatpur Near N S Deshwal School Sawer Bharatpur    9351943976  448  Active  15-06-2015    .4  2737.00 
910 2275 Sateesh Chand 2014-Vakrangee-Bharatpur Sahana,Roopwas Bharatpur   9799457542  191  Active  16-06-2015    .05  10586.61 
911 2276 Gyan Deep Nagar 2014-Vakrangee-Bharatpur Atal Seva Kendra Khoh    8741950051  1116  Active  16-06-2015    564.54  5278.00 
912 2279 Manish Kumar 2014-Vakrangee-Bharatpur Near Thesil Bapu Bazar Nagar Bharatpur    9694286686  2535  Active  16-06-2015    181.42  72.66 
913 2280 Raju Saini 2014-Vakrangee-Bharatpur Village Nyamadpur Post Dharsoni Weir Bharatpur    9414489608  180  Active  16-06-2015    2780.77  6222.00 
914 2281 Kaushal Dutt Mishra 2014-Vakrangee-Bharatpur SHYAM SADAN, KHIRNI GHAT  BHARATPUR   9460680394  16221  Active  16-06-2015    866.93  1705.76 
915 2282 Sandeep Agrawal 2014-Vakrangee-Bharatpur Opp. Bank Of Baroda Station Road New Mandi Bharatpur    9828535797  9593  Active  16-06-2015    678  3330.69 
916 2283 Mubarik Ali 2014-Vakrangee-Bharatpur G.P SABLANA, KAMAN  BHARATPUR   9610209782  Active  16-06-2015    1037.22  9386.62 
917 2291 Rajendra Singh 2014-Vakrangee-Bharatpur PAPRERA, KUMHER  BHARATPUR   9587451131  160  Active  19-06-2015    949.86  22180.60 
918 2292 Arvind Kumar Kansal 2014-Vakrangee-Bharatpur RAM MOBILE, GOAL BAGH ROAD  BHARATPUR   8955888421  13  Active  19-06-2015    1.97  5341.63 
919 2293 Prakash Chand Saini 2014-Vakrangee-Bharatpur SAINI EMITRA CENTRE, NEAR SBBJ BANK  WEIR, BHARATPUR undefined  9351472026  785  Active  19-06-2015    1149.04  5807.47 
920 2301 Ram Singh Jakhad 2014-Vakrangee-Bharatpur Jharoti,Weir Bharatpur   9829630764  400  Active  19-06-2015    9.73  52.00 
921 2323 Parshottam 2014-Vakrangee-Bharatpur ATAL SEVA KENDRA, MATUKI  PAHARI, BHARATPUR undefined  9887656600  896  Active  02-07-2015    .98  9188.94 
922 2328 Manmohan Singh 2014-Vakrangee-Bharatpur INDRA NAGAR COLONY BHARATPURB,D PUBLIC SCHOOL    9667843729  311  Active  03-07-2015    78.18  114.08 
923 2338 Tulsiram 2014-Vakrangee-Bharatpur ANAND NAGAR, BHARATPUR    9950582507  22  Active  14-07-2015    1113.96  180.84 
924 2339 Manish Kumar 2014-Vakrangee-Bharatpur Near Chand Pol Gate Namak Katra Bharatpur    00000  1039  Active  14-07-2015    .54  1203.38 
925 2340 Santosh Kumar 2014-Vakrangee-Bharatpur Kasai Pada ,Ward No 4  Bayana,Bharatpur undefined  9587921359  39  Active  14-07-2015    785.62  3080.65 
926 2341 Vishwajit Singh 2014-Vakrangee-Bharatpur Deeg Bharatpur     7891847685  Active  14-07-2015    3.71  4.56 
927 2342 Kayyum Khan 2014-Vakrangee-Bharatpur G.P. PAI, KAMAN  BHARATPUR   8696790119  49  Active  14-07-2015    .78  18849.95 
928 2343 Rekha Faujdar 2014-Vakrangee-Bharatpur Near Kaka Ji Ki Kothi Brij Nagar Bharatpur     8974887411  10  Active  14-07-2015    .15  413.69 
929 2344 Pravendra Singh 2014-Vakrangee-Bharatpur WARD NO. 46, TYONGA  BHARATPUR   9468978757  715  Active  14-07-2015    13.5  0.00 
930 2345 Shiv Kant Pathak 2014-Vakrangee-Bharatpur In Fornt Of Power House Dholpur Road Roopwas    8058287519  336  Active  14-07-2015    402.55  2957.37 
931 2348 Sajid Khan 2014-Vakrangee-Bharatpur ATAL SEVA KENDRA, KHOHRI  NAGAR, BHARATPUR undefined  9461629712  Active  14-07-2015    823.91  9055.00 
932 2349 Harpratap Singh 2014-Vakrangee-Bharatpur LUDHAWAI, SEWAR  BHARATPUR   9829758742  384  Active  14-07-2015    16.82  2371.56 
933 2350 Ram Kumar 2014-Vakrangee-Bharatpur BHONT, ROOPBAS  BHARATPUR   8696041322  407  Active  14-07-2015    .92  4956.11 
934 2351 Brij Raj Singh 2014-Vakrangee-Bharatpur G.P. FATEHPUR, ROOPBAS  BHARATPUR   9413313148  Active  14-07-2015    122.08  18.91 
935 2355 Lokendra Katara 2014-Vakrangee-Bharatpur ATAL SEVA KENDRA,PARASWARA  NADBAI, BHARATPUR undefined  8107425529  Active  14-07-2015    306.75  0.00 
936 2359 Manish Kumar 2014-Vakrangee-Bharatpur Choudhary Bheem Hotel Nagar Road Deeg    8875751414  11  Active  21-07-2015    672.29  388.00 
937 2360 Raj Kumar 2014-Vakrangee-Bharatpur Village Dantlothi Januthar Deeg    9887728423  291  Active  21-07-2015    385.5  1304.66 
938 2380 Ravi Kant 2014-Vakrangee-Bharatpur ATAL SEVA KENDRA, SALAIMPUR KHURD  WEIR, BHARATPUR undefined  7891095224  2420  Active  29-07-2015    2.2  9618.79 
939 2381 Shivkant Sharma 2014-Vakrangee-Bharatpur WARD NO. 4, NAGAR  BHARATPUR   617  Active  29-07-2015    9.55  637.25 
940 2382 Prem Singh Lodhi 2014-Vakrangee-Bharatpur ATAL SEVA KENDRA, BHAVANPURA  ROOPBAS, BHARATPUR undefined  7023122626  Active  29-07-2015    15.5  10902.64 
941 2383 Bharat Singh 2014-Vakrangee-Bharatpur ATAL SEVA KENDRA, DEEWALI  BHUSAWAR, BHARATPUR undefined  05643-30832  2374  Active  29-07-2015    .5  6180.39 
942 2384 Ved Prakash 2014-Vakrangee-Bharatpur Atal Seva Kendra,Pichoona Rupbas,Bharatpur undefined  9887908951  Active  29-07-2015    150.64  1811.82 
943 2385 Ajayveer Singh 2014-Vakrangee-Bharatpur Dahara,Kumher Bharatpur   9887748800  7277  Active  29-07-2015    .38  15669.53 
944 2386 Yogesh Kumar 2014-Vakrangee-Bharatpur BARAULI CHHAR, NADBAI  BHARATPUR   9413301713  Active  29-07-2015    .74  4385.33 
945 2390 Yashpal Sharma 2014-Vakrangee-Bharatpur G.P. GAONRI, SEWAR  BHARATPUR   9828736992  Active  03-08-2015    370.45  1992.00 
946 2391 Vijay Singh 2014-Vakrangee-Bharatpur Belara Kalan,Kumher Bharatpur   8696019883  856  Active  03-08-2015    .59  401.80 
947 2392 Laxmi Kant Sharma 2014-Vakrangee-Bharatpur UCHCHAIN, ROOPBAS  BHARATPUR   8502803005  21  Active  03-08-2015    .5  2667.66 
948 2406 Devesh Kumar 2014-Vakrangee-Bharatpur INFRONT OF FOREST DEPT. KACHAIRI ROAD, BAYANA  BHARATPUR   9887711750  541  Active  05-08-2015    33.45  964.49 
949 2408 Raju Kumar Meena 2014-Vakrangee-Bharatpur Near Of Old Govt. Hospital, Uchchain  Roopbas, Bharatpur undefined  9461645137  547  Active  05-08-2015    .35  9057.46 
950 2409 Govind 2014-Vakrangee-Bharatpur Tehsil Road, Kumher  Bharatpur   9460290631  161  Active  05-08-2015    361.63  1089.76 
951 2410 Virpal Singh 2014-Vakrangee-Bharatpur G.P. Sinsini, Deeg  Bharatpur   9509213860  114  Active  05-08-2015    1036.49  6877.40 
952 2411 Raj Bahadur 2014-Vakrangee-Bharatpur Nagla Tula Road Rudabal    274384  331  Active  05-08-2015    .57  20468.80 
953 2414 Hakim Singh 2014-Vakrangee-Bharatpur Atal Seva Kendra Ludhbai Sewar Bharatpur    9694525781  1016  Active  05-08-2015    .53  3866.86 
954 2415 Om Prakash 2014-Vakrangee-Bharatpur Mori Mohalla Kaman Bypass Road Deeg Bharatpur    8739885215  1215  Active  05-08-2015    170.6  8851.31 
955 2416 Gyanendra Singh 2014-Vakrangee-Bharatpur Chetna Path Kaman Gate Deeg    9785184667  Active  05-08-2015    28.54  11836.12 
956 2417 Yogesh Kumar 2014-Vakrangee-Bharatpur Infront Of MSJ Collage, Bharatpur    9982833443  191  Active  05-08-2015    29.41  4676.36 
957 2418 Rakesh Kumar 2014-Vakrangee-Bharatpur Village Pichuna Rupbas Bharatpur    8058051726  1880  Active  05-08-2015    58.95  251.25 
958 2419 Sohan Singh 2014-Vakrangee-Bharatpur Kathwara Nagar Bharatpur    9636964732  603  Active  05-08-2015    368.73  32001.76 
959 2420 Taiyab Khan 2014-Vakrangee-Bharatpur Gulpara Nagar Bharatpur    9461044503  1880  Active  05-08-2015    1162.26  25500.91 
960 2421 Yogendra Kumar 2014-Vakrangee-Bharatpur Village - Nagla Mai, Post - Mai  Nadbai, Bharatpur undefined  7737278216  Active  05-08-2015    39.67  3336.63 
961 2427 Shahid 2014-Vakrangee-Bharatpur Pahari, Bharatpur  Rajasthan   9001159127  126  Active  10-08-2015    20.81  452.00 
962 2436 Ganga Ram 2014-Vakrangee-Bharatpur G.P. Ramph, Pahari  Bharatpur   9649780323  420  Active  18-08-2015    1.48  5361.97 
963 2437 Pankaj Foujdar 2014-Vakrangee-Bharatpur Atal Seva Kendra Bandha Chot    9929121238  914  Active  18-08-2015    1001.27  3217.28 
964 2438 Rajesh Kumar 2014-Vakrangee-Bharatpur Village Kharari Bayana Bharatpur    9636395491  890  Active  18-08-2015    94.7  5128.56 
965 2440 Yogesh Kumar Sharma 2014-Vakrangee-Bharatpur VPO Sihawali Nagar Bharatpur    9928266413  80  Active  18-08-2015    29.48  1324.57 
966 2441 Ravi Kumar Sharma 2014-Vakrangee-Bharatpur Near PNB Januthar Deeg Bharatpur    9460741539  294  Active  18-08-2015    .1  2950.69 
967 2443 Vinod Kumar 2014-Vakrangee-Bharatpur Atal Seva Kendra Brahmbad,Bayana Bharatpur   9950359214  1834  Active  18-08-2015    .84  3521.69 
968 2444 Mahendra Singh Jatav 2014-Vakrangee-Bharatpur Vill-Sent,Kumher Bharatpur   1234  20  Active  18-08-2015    489.14  130.00 
969 2463 Prakash Singh 2014-Vakrangee-Bharatpur VPO Bodoli Dehar Pahari    9875114946  237  Active  27-08-2015    784.2  1332.00 
970 2464 Rahul Katara 2014-Vakrangee-Bharatpur Bhusawar Gate Weir Bharatpur    8946905980  30  Active  27-08-2015    203.98  8155.80 
971 2465 Nirbhay Saini 2014-Vakrangee-Bharatpur Atal Seva Kendra Ballabhgarh Bhusawar    8104633806  1502  Active  27-08-2015    277.08  1074.57 
972 2470 Upendra Singh 2014-Vakrangee-Bharatpur G.P. Fulwara, Sewar  Bharatpur   7792974800  1839  Active  28-08-2015    402.5  466.00 
973 2472 Madhav Singh 2014-Vakrangee-Bharatpur Bansi Khurd, Dhanota  Sewar, Bharatpur undefined  8963049020  396  Active  28-08-2015    509.16  3497.26 
974 2474 Ajay Pal Singh 2014-Vakrangee-Bharatpur Bahnera, Uncha Nagla  Sewar, Bharatpur undefined  9799242595  1135  Active  28-08-2015    26.96  6766.15 
975 2477 Bhola 2014-Vakrangee-Bharatpur Milsawa Roopwas Bharatpur    9660914947  Active  28-08-2015    2497.92 
976 2478 Manoj Kumar Sharma 2014-Vakrangee-Bharatpur Rupam Lauge Ke Samne, Saras Chauraha  Bharatpur   9828687888  178  Active  28-08-2015    76.38  6168.39 
977 2479 Ajrudin 2014-Vakrangee-Bharatpur Sahsan, Pahari  Bharatpur   7023045400  Active  28-08-2015    926.16  8991.49 
978 2480 Bhagawan Singh 2014-Vakrangee-Bharatpur G.P. Ajan, Kumher  Bharatpur   9950455874  340  Active  28-08-2015    1237.13  4621.76 
979 2503 Degambar Singh 2014-Vakrangee-Bharatpur Naya Bus Stand, Deeg  Bharatpur   9414715776  23  Active  03-09-2015    .17  69.23 
980 2504 Tej Singh 2014-Vakrangee-Bharatpur G.P. Undra, Sewar  Bharatpur   9680822189  Active  10-09-2015    42.75  0.00 
981 2505 Amitabh Singh